<?xml version="1.0" encoding="UTF-8" standalone="no" ?>
<gpx xmlns="http://www.topografix.com/GPX/1/1" xmlns:xsi="http://www.w3.org/2001/XMLSchema-instance" xsi:schemaLocation="http://www.topografix.com/GPX/1/1 http://www.topografix.com/GPX/1/1/gpx.xsd" version="1.1" creator="VisuGPX - https://www.visugpx.com">
  <metadata>
    <name>Bataillouse-venus-bec</name>
    <desc><![CDATA[Bataillouse-venus-bec]]></desc>
  </metadata>
  <trk>
    <name><![CDATA[19-OCT-14 16:34:38]]></name>
    <trkseg>
      <trkpt lat="45.08823" lon="2.73896">
        <ele>1183.04</ele>
        <time>2014-10-19T11:06:33Z</time>
      </trkpt>
      <trkpt lat="45.08822" lon="2.73897">
        <ele>1182.56</ele>
        <time>2014-10-19T11:07:08Z</time>
      </trkpt>
      <trkpt lat="45.08822" lon="2.73897">
        <ele>1182.56</ele>
        <time>2014-10-19T11:07:29Z</time>
      </trkpt>
      <trkpt lat="45.08822" lon="2.73898">
        <ele>1182.56</ele>
        <time>2014-10-19T11:08:10Z</time>
      </trkpt>
      <trkpt lat="45.08822" lon="2.73898">
        <ele>1182.08</ele>
        <time>2014-10-19T11:08:12Z</time>
      </trkpt>
      <trkpt lat="45.08822" lon="2.73897">
        <ele>1183.52</ele>
        <time>2014-10-19T11:08:28Z</time>
      </trkpt>
      <trkpt lat="45.08824" lon="2.739">
        <ele>1183.52</ele>
        <time>2014-10-19T11:09:01Z</time>
      </trkpt>
      <trkpt lat="45.08819" lon="2.73913">
        <ele>1182.56</ele>
        <time>2014-10-19T11:09:20Z</time>
      </trkpt>
      <trkpt lat="45.08816" lon="2.73923">
        <ele>1183.04</ele>
        <time>2014-10-19T11:09:36Z</time>
      </trkpt>
      <trkpt lat="45.08814" lon="2.73925">
        <ele>1182.56</ele>
        <time>2014-10-19T11:09:38Z</time>
      </trkpt>
      <trkpt lat="45.0881" lon="2.73927">
        <ele>1183.04</ele>
        <time>2014-10-19T11:09:47Z</time>
      </trkpt>
      <trkpt lat="45.08813" lon="2.73925">
        <ele>1183.04</ele>
        <time>2014-10-19T11:09:51Z</time>
      </trkpt>
      <trkpt lat="45.08816" lon="2.73924">
        <ele>1183.04</ele>
        <time>2014-10-19T11:09:55Z</time>
      </trkpt>
      <trkpt lat="45.08825" lon="2.73902">
        <ele>1184</ele>
        <time>2014-10-19T11:10:14Z</time>
      </trkpt>
      <trkpt lat="45.08824" lon="2.73898">
        <ele>1184</ele>
        <time>2014-10-19T11:10:28Z</time>
      </trkpt>
      <trkpt lat="45.08825" lon="2.73898">
        <ele>1184</ele>
        <time>2014-10-19T11:10:30Z</time>
      </trkpt>
      <trkpt lat="45.08822" lon="2.73907">
        <ele>1184</ele>
        <time>2014-10-19T11:10:40Z</time>
      </trkpt>
      <trkpt lat="45.08804" lon="2.73932">
        <ele>1184</ele>
        <time>2014-10-19T11:11:01Z</time>
      </trkpt>
      <trkpt lat="45.08799" lon="2.73937">
        <ele>1184.96</ele>
        <time>2014-10-19T11:11:05Z</time>
      </trkpt>
      <trkpt lat="45.08787" lon="2.73946">
        <ele>1186.4</ele>
        <time>2014-10-19T11:11:18Z</time>
      </trkpt>
      <trkpt lat="45.08783" lon="2.73952">
        <ele>1186.4</ele>
        <time>2014-10-19T11:11:23Z</time>
      </trkpt>
      <trkpt lat="45.08781" lon="2.73955">
        <ele>1186.88</ele>
        <time>2014-10-19T11:11:26Z</time>
      </trkpt>
      <trkpt lat="45.08762" lon="2.73973">
        <ele>1189.29</ele>
        <time>2014-10-19T11:11:46Z</time>
      </trkpt>
      <trkpt lat="45.08758" lon="2.7397">
        <ele>1189.77</ele>
        <time>2014-10-19T11:11:53Z</time>
      </trkpt>
      <trkpt lat="45.08754" lon="2.73959">
        <ele>1191.21</ele>
        <time>2014-10-19T11:12:03Z</time>
      </trkpt>
      <trkpt lat="45.0875" lon="2.73937">
        <ele>1192.65</ele>
        <time>2014-10-19T11:12:19Z</time>
      </trkpt>
      <trkpt lat="45.08747" lon="2.73914">
        <ele>1195.06</ele>
        <time>2014-10-19T11:12:37Z</time>
      </trkpt>
      <trkpt lat="45.08745" lon="2.73911">
        <ele>1196.02</ele>
        <time>2014-10-19T11:12:40Z</time>
      </trkpt>
      <trkpt lat="45.08745" lon="2.73899">
        <ele>1196.98</ele>
        <time>2014-10-19T11:13:04Z</time>
      </trkpt>
      <trkpt lat="45.08745" lon="2.73901">
        <ele>1197.46</ele>
        <time>2014-10-19T11:13:41Z</time>
      </trkpt>
      <trkpt lat="45.0874" lon="2.73899">
        <ele>1197.46</ele>
        <time>2014-10-19T11:13:45Z</time>
      </trkpt>
      <trkpt lat="45.08738" lon="2.739">
        <ele>1200.82</ele>
        <time>2014-10-19T11:13:59Z</time>
      </trkpt>
      <trkpt lat="45.08738" lon="2.739">
        <ele>1202.27</ele>
        <time>2014-10-19T11:14:25Z</time>
      </trkpt>
      <trkpt lat="45.08726" lon="2.73897">
        <ele>1205.15</ele>
        <time>2014-10-19T11:14:43Z</time>
      </trkpt>
      <trkpt lat="45.08717" lon="2.73894">
        <ele>1207.55</ele>
        <time>2014-10-19T11:15:04Z</time>
      </trkpt>
      <trkpt lat="45.08712" lon="2.73895">
        <ele>1206.59</ele>
        <time>2014-10-19T11:15:25Z</time>
      </trkpt>
      <trkpt lat="45.08709" lon="2.73889">
        <ele>1207.07</ele>
        <time>2014-10-19T11:15:47Z</time>
      </trkpt>
      <trkpt lat="45.08715" lon="2.73897">
        <ele>1205.15</ele>
        <time>2014-10-19T11:16:10Z</time>
      </trkpt>
      <trkpt lat="45.08727" lon="2.73902">
        <ele>1202.75</ele>
        <time>2014-10-19T11:16:30Z</time>
      </trkpt>
      <trkpt lat="45.08736" lon="2.7391">
        <ele>1205.63</ele>
        <time>2014-10-19T11:16:47Z</time>
      </trkpt>
      <trkpt lat="45.08729" lon="2.73906">
        <ele>1209</ele>
        <time>2014-10-19T11:17:04Z</time>
      </trkpt>
      <trkpt lat="45.08723" lon="2.73903">
        <ele>1211.88</ele>
        <time>2014-10-19T11:17:20Z</time>
      </trkpt>
      <trkpt lat="45.0871" lon="2.73906">
        <ele>1215.24</ele>
        <time>2014-10-19T11:17:34Z</time>
      </trkpt>
      <trkpt lat="45.08702" lon="2.73904">
        <ele>1218.61</ele>
        <time>2014-10-19T11:17:50Z</time>
      </trkpt>
      <trkpt lat="45.08681" lon="2.7389">
        <ele>1221.97</ele>
        <time>2014-10-19T11:18:08Z</time>
      </trkpt>
      <trkpt lat="45.08672" lon="2.73889">
        <ele>1224.86</ele>
        <time>2014-10-19T11:18:25Z</time>
      </trkpt>
      <trkpt lat="45.08673" lon="2.73884">
        <ele>1226.3</ele>
        <time>2014-10-19T11:18:51Z</time>
      </trkpt>
      <trkpt lat="45.08666" lon="2.7387">
        <ele>1229.18</ele>
        <time>2014-10-19T11:19:10Z</time>
      </trkpt>
      <trkpt lat="45.08664" lon="2.73859">
        <ele>1230.14</ele>
        <time>2014-10-19T11:19:21Z</time>
      </trkpt>
      <trkpt lat="45.08655" lon="2.73835">
        <ele>1232.07</ele>
        <time>2014-10-19T11:19:37Z</time>
      </trkpt>
      <trkpt lat="45.08652" lon="2.73821">
        <ele>1233.51</ele>
        <time>2014-10-19T11:19:47Z</time>
      </trkpt>
      <trkpt lat="45.08649" lon="2.73806">
        <ele>1235.91</ele>
        <time>2014-10-19T11:20:04Z</time>
      </trkpt>
      <trkpt lat="45.08642" lon="2.73782">
        <ele>1238.32</ele>
        <time>2014-10-19T11:20:21Z</time>
      </trkpt>
      <trkpt lat="45.0864" lon="2.73763">
        <ele>1239.76</ele>
        <time>2014-10-19T11:20:36Z</time>
      </trkpt>
      <trkpt lat="45.08636" lon="2.73749">
        <ele>1242.64</ele>
        <time>2014-10-19T11:20:48Z</time>
      </trkpt>
      <trkpt lat="45.08625" lon="2.7375">
        <ele>1244.56</ele>
        <time>2014-10-19T11:21:07Z</time>
      </trkpt>
      <trkpt lat="45.08617" lon="2.73742">
        <ele>1247.93</ele>
        <time>2014-10-19T11:21:23Z</time>
      </trkpt>
      <trkpt lat="45.0861" lon="2.73741">
        <ele>1249.85</ele>
        <time>2014-10-19T11:21:31Z</time>
      </trkpt>
      <trkpt lat="45.08604" lon="2.73734">
        <ele>1252.74</ele>
        <time>2014-10-19T11:21:48Z</time>
      </trkpt>
      <trkpt lat="45.08596" lon="2.73728">
        <ele>1256.1</ele>
        <time>2014-10-19T11:22:06Z</time>
      </trkpt>
      <trkpt lat="45.08589" lon="2.73731">
        <ele>1256.58</ele>
        <time>2014-10-19T11:22:13Z</time>
      </trkpt>
      <trkpt lat="45.08577" lon="2.73722">
        <ele>1259.46</ele>
        <time>2014-10-19T11:22:31Z</time>
      </trkpt>
      <trkpt lat="45.08567" lon="2.73699">
        <ele>1262.83</ele>
        <time>2014-10-19T11:22:52Z</time>
      </trkpt>
      <trkpt lat="45.08561" lon="2.73688">
        <ele>1266.19</ele>
        <time>2014-10-19T11:23:08Z</time>
      </trkpt>
      <trkpt lat="45.08557" lon="2.73673">
        <ele>1269.56</ele>
        <time>2014-10-19T11:23:24Z</time>
      </trkpt>
      <trkpt lat="45.08556" lon="2.73672">
        <ele>1269.56</ele>
        <time>2014-10-19T11:23:25Z</time>
      </trkpt>
      <trkpt lat="45.08546" lon="2.73667">
        <ele>1272.92</ele>
        <time>2014-10-19T11:23:40Z</time>
      </trkpt>
      <trkpt lat="45.0854" lon="2.73657">
        <ele>1274.36</ele>
        <time>2014-10-19T11:23:58Z</time>
      </trkpt>
      <trkpt lat="45.0853" lon="2.73645">
        <ele>1276.29</ele>
        <time>2014-10-19T11:24:17Z</time>
      </trkpt>
      <trkpt lat="45.0853" lon="2.73621">
        <ele>1278.21</ele>
        <time>2014-10-19T11:24:34Z</time>
      </trkpt>
      <trkpt lat="45.08532" lon="2.736">
        <ele>1280.13</ele>
        <time>2014-10-19T11:24:48Z</time>
      </trkpt>
      <trkpt lat="45.0855" lon="2.73574">
        <ele>1281.57</ele>
        <time>2014-10-19T11:25:09Z</time>
      </trkpt>
      <trkpt lat="45.08559" lon="2.73546">
        <ele>1283.5</ele>
        <time>2014-10-19T11:25:28Z</time>
      </trkpt>
      <trkpt lat="45.08547" lon="2.73523">
        <ele>1284.46</ele>
        <time>2014-10-19T11:25:39Z</time>
      </trkpt>
      <trkpt lat="45.08541" lon="2.73509">
        <ele>1283.98</ele>
        <time>2014-10-19T11:25:44Z</time>
      </trkpt>
      <trkpt lat="45.08542" lon="2.73476">
        <ele>1286.38</ele>
        <time>2014-10-19T11:26:03Z</time>
      </trkpt>
      <trkpt lat="45.08547" lon="2.7345">
        <ele>1287.82</ele>
        <time>2014-10-19T11:26:21Z</time>
      </trkpt>
      <trkpt lat="45.08548" lon="2.73445">
        <ele>1288.3</ele>
        <time>2014-10-19T11:26:24Z</time>
      </trkpt>
      <trkpt lat="45.08551" lon="2.73438">
        <ele>1288.78</ele>
        <time>2014-10-19T11:26:29Z</time>
      </trkpt>
      <trkpt lat="45.08554" lon="2.73427">
        <ele>1289.75</ele>
        <time>2014-10-19T11:26:37Z</time>
      </trkpt>
      <trkpt lat="45.08556" lon="2.73421">
        <ele>1290.23</ele>
        <time>2014-10-19T11:26:42Z</time>
      </trkpt>
      <trkpt lat="45.08565" lon="2.73396">
        <ele>1292.63</ele>
        <time>2014-10-19T11:27:02Z</time>
      </trkpt>
      <trkpt lat="45.08567" lon="2.73382">
        <ele>1294.07</ele>
        <time>2014-10-19T11:27:13Z</time>
      </trkpt>
      <trkpt lat="45.08569" lon="2.73377">
        <ele>1294.55</ele>
        <time>2014-10-19T11:27:17Z</time>
      </trkpt>
      <trkpt lat="45.08572" lon="2.73365">
        <ele>1296.48</ele>
        <time>2014-10-19T11:27:28Z</time>
      </trkpt>
      <trkpt lat="45.08575" lon="2.73361">
        <ele>1296.48</ele>
        <time>2014-10-19T11:27:31Z</time>
      </trkpt>
      <trkpt lat="45.08585" lon="2.73339">
        <ele>1299.36</ele>
        <time>2014-10-19T11:27:53Z</time>
      </trkpt>
      <trkpt lat="45.08595" lon="2.73324">
        <ele>1302.72</ele>
        <time>2014-10-19T11:28:11Z</time>
      </trkpt>
      <trkpt lat="45.08599" lon="2.73307">
        <ele>1306.09</ele>
        <time>2014-10-19T11:28:29Z</time>
      </trkpt>
      <trkpt lat="45.08601" lon="2.73293">
        <ele>1308.01</ele>
        <time>2014-10-19T11:28:41Z</time>
      </trkpt>
      <trkpt lat="45.08604" lon="2.73276">
        <ele>1311.38</ele>
        <time>2014-10-19T11:28:59Z</time>
      </trkpt>
      <trkpt lat="45.08604" lon="2.73259">
        <ele>1314.26</ele>
        <time>2014-10-19T11:29:17Z</time>
      </trkpt>
      <trkpt lat="45.08606" lon="2.73235">
        <ele>1316.18</ele>
        <time>2014-10-19T11:29:34Z</time>
      </trkpt>
      <trkpt lat="45.08608" lon="2.73215">
        <ele>1318.1</ele>
        <time>2014-10-19T11:29:47Z</time>
      </trkpt>
      <trkpt lat="45.08611" lon="2.732">
        <ele>1320.99</ele>
        <time>2014-10-19T11:30:06Z</time>
      </trkpt>
      <trkpt lat="45.08617" lon="2.73193">
        <ele>1324.35</ele>
        <time>2014-10-19T11:30:21Z</time>
      </trkpt>
      <trkpt lat="45.08623" lon="2.73184">
        <ele>1327.24</ele>
        <time>2014-10-19T11:30:39Z</time>
      </trkpt>
      <trkpt lat="45.0863" lon="2.73176">
        <ele>1330.6</ele>
        <time>2014-10-19T11:30:58Z</time>
      </trkpt>
      <trkpt lat="45.08634" lon="2.73172">
        <ele>1333.49</ele>
        <time>2014-10-19T11:31:16Z</time>
      </trkpt>
      <trkpt lat="45.08641" lon="2.73159">
        <ele>1336.37</ele>
        <time>2014-10-19T11:31:30Z</time>
      </trkpt>
      <trkpt lat="45.08645" lon="2.73152">
        <ele>1339.73</ele>
        <time>2014-10-19T11:31:53Z</time>
      </trkpt>
      <trkpt lat="45.08653" lon="2.73137">
        <ele>1342.62</ele>
        <time>2014-10-19T11:32:12Z</time>
      </trkpt>
      <trkpt lat="45.08657" lon="2.73127">
        <ele>1345.98</ele>
        <time>2014-10-19T11:32:28Z</time>
      </trkpt>
      <trkpt lat="45.08663" lon="2.73112">
        <ele>1348.87</ele>
        <time>2014-10-19T11:32:47Z</time>
      </trkpt>
      <trkpt lat="45.08675" lon="2.73095">
        <ele>1351.75</ele>
        <time>2014-10-19T11:33:10Z</time>
      </trkpt>
      <trkpt lat="45.08681" lon="2.73083">
        <ele>1352.23</ele>
        <time>2014-10-19T11:33:20Z</time>
      </trkpt>
      <trkpt lat="45.08685" lon="2.73073">
        <ele>1353.19</ele>
        <time>2014-10-19T11:33:33Z</time>
      </trkpt>
      <trkpt lat="45.08686" lon="2.73074">
        <ele>1352.23</ele>
        <time>2014-10-19T11:34:01Z</time>
      </trkpt>
      <trkpt lat="45.08686" lon="2.73069">
        <ele>1352.71</ele>
        <time>2014-10-19T11:34:42Z</time>
      </trkpt>
      <trkpt lat="45.08686" lon="2.73067">
        <ele>1353.19</ele>
        <time>2014-10-19T11:35:29Z</time>
      </trkpt>
      <trkpt lat="45.08685" lon="2.73068">
        <ele>1353.19</ele>
        <time>2014-10-19T11:35:55Z</time>
      </trkpt>
      <trkpt lat="45.08685" lon="2.73069">
        <ele>1354.15</ele>
        <time>2014-10-19T11:36:16Z</time>
      </trkpt>
      <trkpt lat="45.08688" lon="2.73068">
        <ele>1354.63</ele>
        <time>2014-10-19T11:36:37Z</time>
      </trkpt>
      <trkpt lat="45.08687" lon="2.73066">
        <ele>1354.63</ele>
        <time>2014-10-19T11:37:15Z</time>
      </trkpt>
      <trkpt lat="45.08692" lon="2.7306">
        <ele>1355.12</ele>
        <time>2014-10-19T11:37:40Z</time>
      </trkpt>
      <trkpt lat="45.08698" lon="2.73023">
        <ele>1357.04</ele>
        <time>2014-10-19T11:38:06Z</time>
      </trkpt>
      <trkpt lat="45.08706" lon="2.72994">
        <ele>1358.48</ele>
        <time>2014-10-19T11:38:28Z</time>
      </trkpt>
      <trkpt lat="45.0871" lon="2.72977">
        <ele>1358.96</ele>
        <time>2014-10-19T11:38:39Z</time>
      </trkpt>
      <trkpt lat="45.08704" lon="2.72953">
        <ele>1359.44</ele>
        <time>2014-10-19T11:38:59Z</time>
      </trkpt>
      <trkpt lat="45.08709" lon="2.72921">
        <ele>1359.92</ele>
        <time>2014-10-19T11:39:20Z</time>
      </trkpt>
      <trkpt lat="45.08709" lon="2.72887">
        <ele>1362.33</ele>
        <time>2014-10-19T11:39:46Z</time>
      </trkpt>
      <trkpt lat="45.08716" lon="2.72872">
        <ele>1363.77</ele>
        <time>2014-10-19T11:40:08Z</time>
      </trkpt>
      <trkpt lat="45.08726" lon="2.72851">
        <ele>1367.13</ele>
        <time>2014-10-19T11:40:26Z</time>
      </trkpt>
      <trkpt lat="45.08724" lon="2.72833">
        <ele>1370.02</ele>
        <time>2014-10-19T11:40:45Z</time>
      </trkpt>
      <trkpt lat="45.08706" lon="2.72813">
        <ele>1373.38</ele>
        <time>2014-10-19T11:41:08Z</time>
      </trkpt>
      <trkpt lat="45.08698" lon="2.72796">
        <ele>1376.26</ele>
        <time>2014-10-19T11:41:29Z</time>
      </trkpt>
      <trkpt lat="45.08697" lon="2.72756">
        <ele>1379.15</ele>
        <time>2014-10-19T11:41:59Z</time>
      </trkpt>
      <trkpt lat="45.08689" lon="2.72723">
        <ele>1381.55</ele>
        <time>2014-10-19T11:42:22Z</time>
      </trkpt>
      <trkpt lat="45.08689" lon="2.72686">
        <ele>1384.44</ele>
        <time>2014-10-19T11:42:44Z</time>
      </trkpt>
      <trkpt lat="45.08694" lon="2.72652">
        <ele>1387.8</ele>
        <time>2014-10-19T11:43:05Z</time>
      </trkpt>
      <trkpt lat="45.08695" lon="2.72648">
        <ele>1387.8</ele>
        <time>2014-10-19T11:43:10Z</time>
      </trkpt>
      <trkpt lat="45.08701" lon="2.72632">
        <ele>1391.65</ele>
        <time>2014-10-19T11:43:29Z</time>
      </trkpt>
      <trkpt lat="45.08706" lon="2.72621">
        <ele>1394.53</ele>
        <time>2014-10-19T11:43:47Z</time>
      </trkpt>
      <trkpt lat="45.0871" lon="2.72604">
        <ele>1397.89</ele>
        <time>2014-10-19T11:44:08Z</time>
      </trkpt>
      <trkpt lat="45.0872" lon="2.72592">
        <ele>1400.78</ele>
        <time>2014-10-19T11:44:27Z</time>
      </trkpt>
      <trkpt lat="45.08731" lon="2.72581">
        <ele>1403.66</ele>
        <time>2014-10-19T11:44:44Z</time>
      </trkpt>
      <trkpt lat="45.08746" lon="2.72568">
        <ele>1406.55</ele>
        <time>2014-10-19T11:45:03Z</time>
      </trkpt>
      <trkpt lat="45.08757" lon="2.72543">
        <ele>1409.91</ele>
        <time>2014-10-19T11:45:26Z</time>
      </trkpt>
      <trkpt lat="45.08761" lon="2.72529">
        <ele>1411.35</ele>
        <time>2014-10-19T11:45:38Z</time>
      </trkpt>
      <trkpt lat="45.08766" lon="2.72501">
        <ele>1414.24</ele>
        <time>2014-10-19T11:45:59Z</time>
      </trkpt>
      <trkpt lat="45.08766" lon="2.72497">
        <ele>1414.72</ele>
        <time>2014-10-19T11:46:02Z</time>
      </trkpt>
      <trkpt lat="45.08769" lon="2.7248">
        <ele>1415.2</ele>
        <time>2014-10-19T11:46:13Z</time>
      </trkpt>
      <trkpt lat="45.08776" lon="2.72445">
        <ele>1418.56</ele>
        <time>2014-10-19T11:46:40Z</time>
      </trkpt>
      <trkpt lat="45.0879" lon="2.72417">
        <ele>1420</ele>
        <time>2014-10-19T11:47:04Z</time>
      </trkpt>
      <trkpt lat="45.08801" lon="2.72396">
        <ele>1423.37</ele>
        <time>2014-10-19T11:47:26Z</time>
      </trkpt>
      <trkpt lat="45.08815" lon="2.72379">
        <ele>1426.73</ele>
        <time>2014-10-19T11:47:44Z</time>
      </trkpt>
      <trkpt lat="45.0883" lon="2.72351">
        <ele>1429.14</ele>
        <time>2014-10-19T11:48:08Z</time>
      </trkpt>
      <trkpt lat="45.08843" lon="2.72335">
        <ele>1432.5</ele>
        <time>2014-10-19T11:48:29Z</time>
      </trkpt>
      <trkpt lat="45.08855" lon="2.7232">
        <ele>1435.87</ele>
        <time>2014-10-19T11:48:51Z</time>
      </trkpt>
      <trkpt lat="45.08863" lon="2.72302">
        <ele>1439.23</ele>
        <time>2014-10-19T11:49:11Z</time>
      </trkpt>
      <trkpt lat="45.08874" lon="2.72287">
        <ele>1442.11</ele>
        <time>2014-10-19T11:49:32Z</time>
      </trkpt>
      <trkpt lat="45.08888" lon="2.72279">
        <ele>1445.48</ele>
        <time>2014-10-19T11:49:54Z</time>
      </trkpt>
      <trkpt lat="45.08905" lon="2.72268">
        <ele>1447.4</ele>
        <time>2014-10-19T11:50:17Z</time>
      </trkpt>
      <trkpt lat="45.08924" lon="2.72255">
        <ele>1450.77</ele>
        <time>2014-10-19T11:50:44Z</time>
      </trkpt>
      <trkpt lat="45.08938" lon="2.72241">
        <ele>1453.65</ele>
        <time>2014-10-19T11:51:06Z</time>
      </trkpt>
      <trkpt lat="45.08939" lon="2.72236">
        <ele>1454.13</ele>
        <time>2014-10-19T11:51:44Z</time>
      </trkpt>
      <trkpt lat="45.08939" lon="2.72214">
        <ele>1456.53</ele>
        <time>2014-10-19T11:52:03Z</time>
      </trkpt>
      <trkpt lat="45.08942" lon="2.72193">
        <ele>1458.46</ele>
        <time>2014-10-19T11:52:18Z</time>
      </trkpt>
      <trkpt lat="45.08943" lon="2.72179">
        <ele>1459.42</ele>
        <time>2014-10-19T11:52:27Z</time>
      </trkpt>
      <trkpt lat="45.08947" lon="2.72154">
        <ele>1461.82</ele>
        <time>2014-10-19T11:52:49Z</time>
      </trkpt>
      <trkpt lat="45.08956" lon="2.72131">
        <ele>1465.19</ele>
        <time>2014-10-19T11:53:10Z</time>
      </trkpt>
      <trkpt lat="45.08951" lon="2.72107">
        <ele>1466.63</ele>
        <time>2014-10-19T11:53:30Z</time>
      </trkpt>
      <trkpt lat="45.08952" lon="2.72097">
        <ele>1469.51</ele>
        <time>2014-10-19T11:53:46Z</time>
      </trkpt>
      <trkpt lat="45.08958" lon="2.72075">
        <ele>1472.4</ele>
        <time>2014-10-19T11:54:07Z</time>
      </trkpt>
      <trkpt lat="45.08961" lon="2.7205">
        <ele>1475.76</ele>
        <time>2014-10-19T11:54:28Z</time>
      </trkpt>
      <trkpt lat="45.08966" lon="2.72032">
        <ele>1476.24</ele>
        <time>2014-10-19T11:54:46Z</time>
      </trkpt>
      <trkpt lat="45.08975" lon="2.72015">
        <ele>1479.13</ele>
        <time>2014-10-19T11:55:10Z</time>
      </trkpt>
      <trkpt lat="45.0899" lon="2.71998">
        <ele>1481.53</ele>
        <time>2014-10-19T11:55:32Z</time>
      </trkpt>
      <trkpt lat="45.08995" lon="2.71985">
        <ele>1483.45</ele>
        <time>2014-10-19T11:55:43Z</time>
      </trkpt>
      <trkpt lat="45.09006" lon="2.71964">
        <ele>1486.34</ele>
        <time>2014-10-19T11:56:06Z</time>
      </trkpt>
      <trkpt lat="45.09015" lon="2.71946">
        <ele>1488.26</ele>
        <time>2014-10-19T11:56:30Z</time>
      </trkpt>
      <trkpt lat="45.0902" lon="2.71933">
        <ele>1490.66</ele>
        <time>2014-10-19T11:56:51Z</time>
      </trkpt>
      <trkpt lat="45.09028" lon="2.71911">
        <ele>1493.55</ele>
        <time>2014-10-19T11:57:09Z</time>
      </trkpt>
      <trkpt lat="45.09031" lon="2.71889">
        <ele>1495.95</ele>
        <time>2014-10-19T11:57:27Z</time>
      </trkpt>
      <trkpt lat="45.09026" lon="2.71861">
        <ele>1499.31</ele>
        <time>2014-10-19T11:57:51Z</time>
      </trkpt>
      <trkpt lat="45.09025" lon="2.71854">
        <ele>1498.83</ele>
        <time>2014-10-19T11:58:10Z</time>
      </trkpt>
      <trkpt lat="45.09025" lon="2.71852">
        <ele>1499.79</ele>
        <time>2014-10-19T11:58:51Z</time>
      </trkpt>
      <trkpt lat="45.09025" lon="2.7185">
        <ele>1499.79</ele>
        <time>2014-10-19T11:59:10Z</time>
      </trkpt>
      <trkpt lat="45.09026" lon="2.71849">
        <ele>1499.79</ele>
        <time>2014-10-19T11:59:19Z</time>
      </trkpt>
      <trkpt lat="45.09027" lon="2.71845">
        <ele>1499.79</ele>
        <time>2014-10-19T11:59:44Z</time>
      </trkpt>
      <trkpt lat="45.09031" lon="2.71828">
        <ele>1501.24</ele>
        <time>2014-10-19T12:00:10Z</time>
      </trkpt>
      <trkpt lat="45.09039" lon="2.71805">
        <ele>1503.64</ele>
        <time>2014-10-19T12:00:28Z</time>
      </trkpt>
      <trkpt lat="45.09046" lon="2.71782">
        <ele>1505.08</ele>
        <time>2014-10-19T12:00:48Z</time>
      </trkpt>
      <trkpt lat="45.09052" lon="2.71771">
        <ele>1506.04</ele>
        <time>2014-10-19T12:00:59Z</time>
      </trkpt>
      <trkpt lat="45.09063" lon="2.7175">
        <ele>1508.93</ele>
        <time>2014-10-19T12:01:20Z</time>
      </trkpt>
      <trkpt lat="45.0907" lon="2.71741">
        <ele>1511.33</ele>
        <time>2014-10-19T12:01:32Z</time>
      </trkpt>
      <trkpt lat="45.09071" lon="2.71737">
        <ele>1511.81</ele>
        <time>2014-10-19T12:01:36Z</time>
      </trkpt>
      <trkpt lat="45.09083" lon="2.7172">
        <ele>1514.21</ele>
        <time>2014-10-19T12:01:56Z</time>
      </trkpt>
      <trkpt lat="45.0909" lon="2.71714">
        <ele>1514.69</ele>
        <time>2014-10-19T12:02:10Z</time>
      </trkpt>
      <trkpt lat="45.09101" lon="2.71709">
        <ele>1517.1</ele>
        <time>2014-10-19T12:02:31Z</time>
      </trkpt>
      <trkpt lat="45.09102" lon="2.71709">
        <ele>1517.1</ele>
        <time>2014-10-19T12:02:33Z</time>
      </trkpt>
      <trkpt lat="45.09112" lon="2.71706">
        <ele>1518.06</ele>
        <time>2014-10-19T12:02:50Z</time>
      </trkpt>
      <trkpt lat="45.09121" lon="2.71707">
        <ele>1519.98</ele>
        <time>2014-10-19T12:03:08Z</time>
      </trkpt>
      <trkpt lat="45.09122" lon="2.71708">
        <ele>1519.5</ele>
        <time>2014-10-19T12:03:11Z</time>
      </trkpt>
      <trkpt lat="45.09129" lon="2.71706">
        <ele>1520.94</ele>
        <time>2014-10-19T12:03:19Z</time>
      </trkpt>
      <trkpt lat="45.09131" lon="2.71705">
        <ele>1520.94</ele>
        <time>2014-10-19T12:03:21Z</time>
      </trkpt>
      <trkpt lat="45.0915" lon="2.71704">
        <ele>1522.39</ele>
        <time>2014-10-19T12:03:40Z</time>
      </trkpt>
      <trkpt lat="45.09163" lon="2.71702">
        <ele>1522.87</ele>
        <time>2014-10-19T12:03:52Z</time>
      </trkpt>
      <trkpt lat="45.09165" lon="2.71703">
        <ele>1523.35</ele>
        <time>2014-10-19T12:03:54Z</time>
      </trkpt>
      <trkpt lat="45.09177" lon="2.71697">
        <ele>1524.79</ele>
        <time>2014-10-19T12:04:07Z</time>
      </trkpt>
      <trkpt lat="45.0918" lon="2.71696">
        <ele>1524.79</ele>
        <time>2014-10-19T12:04:11Z</time>
      </trkpt>
      <trkpt lat="45.09182" lon="2.71695">
        <ele>1524.79</ele>
        <time>2014-10-19T12:04:13Z</time>
      </trkpt>
      <trkpt lat="45.09207" lon="2.71683">
        <ele>1524.79</ele>
        <time>2014-10-19T12:04:37Z</time>
      </trkpt>
      <trkpt lat="45.09229" lon="2.71676">
        <ele>1525.27</ele>
        <time>2014-10-19T12:04:58Z</time>
      </trkpt>
      <trkpt lat="45.09236" lon="2.71671">
        <ele>1526.71</ele>
        <time>2014-10-19T12:05:07Z</time>
      </trkpt>
      <trkpt lat="45.09238" lon="2.71669">
        <ele>1527.19</ele>
        <time>2014-10-19T12:05:09Z</time>
      </trkpt>
      <trkpt lat="45.09255" lon="2.71665">
        <ele>1529.11</ele>
        <time>2014-10-19T12:05:29Z</time>
      </trkpt>
      <trkpt lat="45.09269" lon="2.7167">
        <ele>1530.56</ele>
        <time>2014-10-19T12:05:48Z</time>
      </trkpt>
      <trkpt lat="45.09278" lon="2.71676">
        <ele>1532.48</ele>
        <time>2014-10-19T12:06:03Z</time>
      </trkpt>
      <trkpt lat="45.0929" lon="2.71687">
        <ele>1535.84</ele>
        <time>2014-10-19T12:06:22Z</time>
      </trkpt>
      <trkpt lat="45.09295" lon="2.71684">
        <ele>1536.32</ele>
        <time>2014-10-19T12:06:39Z</time>
      </trkpt>
      <trkpt lat="45.093" lon="2.71686">
        <ele>1537.29</ele>
        <time>2014-10-19T12:06:57Z</time>
      </trkpt>
      <trkpt lat="45.09301" lon="2.71687">
        <ele>1537.29</ele>
        <time>2014-10-19T12:06:59Z</time>
      </trkpt>
      <trkpt lat="45.09302" lon="2.7169">
        <ele>1537.77</ele>
        <time>2014-10-19T12:07:16Z</time>
      </trkpt>
      <trkpt lat="45.09303" lon="2.71689">
        <ele>1537.29</ele>
        <time>2014-10-19T12:08:06Z</time>
      </trkpt>
      <trkpt lat="45.09304" lon="2.71689">
        <ele>1536.8</ele>
        <time>2014-10-19T12:08:58Z</time>
      </trkpt>
      <trkpt lat="45.09304" lon="2.71689">
        <ele>1537.77</ele>
        <time>2014-10-19T12:09:51Z</time>
      </trkpt>
      <trkpt lat="45.09305" lon="2.71689">
        <ele>1537.29</ele>
        <time>2014-10-19T12:10:42Z</time>
      </trkpt>
      <trkpt lat="45.09304" lon="2.71689">
        <ele>1538.73</ele>
        <time>2014-10-19T12:10:45Z</time>
      </trkpt>
      <trkpt lat="45.09305" lon="2.71691">
        <ele>1539.21</ele>
        <time>2014-10-19T12:11:06Z</time>
      </trkpt>
      <trkpt lat="45.09306" lon="2.71691">
        <ele>1537.77</ele>
        <time>2014-10-19T12:11:35Z</time>
      </trkpt>
      <trkpt lat="45.09308" lon="2.71692">
        <ele>1538.25</ele>
        <time>2014-10-19T12:11:42Z</time>
      </trkpt>
      <trkpt lat="45.09316" lon="2.71696">
        <ele>1538.73</ele>
        <time>2014-10-19T12:11:51Z</time>
      </trkpt>
      <trkpt lat="45.09335" lon="2.71708">
        <ele>1539.21</ele>
        <time>2014-10-19T12:12:13Z</time>
      </trkpt>
      <trkpt lat="45.09346" lon="2.71714">
        <ele>1538.73</ele>
        <time>2014-10-19T12:12:25Z</time>
      </trkpt>
      <trkpt lat="45.09365" lon="2.71723">
        <ele>1537.77</ele>
        <time>2014-10-19T12:12:44Z</time>
      </trkpt>
      <trkpt lat="45.09368" lon="2.71723">
        <ele>1537.77</ele>
        <time>2014-10-19T12:12:47Z</time>
      </trkpt>
      <trkpt lat="45.09376" lon="2.71727">
        <ele>1538.25</ele>
        <time>2014-10-19T12:13:10Z</time>
      </trkpt>
      <trkpt lat="45.09393" lon="2.71735">
        <ele>1537.77</ele>
        <time>2014-10-19T12:13:35Z</time>
      </trkpt>
      <trkpt lat="45.09417" lon="2.71749">
        <ele>1538.73</ele>
        <time>2014-10-19T12:13:58Z</time>
      </trkpt>
      <trkpt lat="45.09441" lon="2.71754">
        <ele>1539.21</ele>
        <time>2014-10-19T12:14:20Z</time>
      </trkpt>
      <trkpt lat="45.09463" lon="2.71766">
        <ele>1539.21</ele>
        <time>2014-10-19T12:14:39Z</time>
      </trkpt>
      <trkpt lat="45.09468" lon="2.71766">
        <ele>1538.73</ele>
        <time>2014-10-19T12:14:57Z</time>
      </trkpt>
      <trkpt lat="45.09469" lon="2.71766">
        <ele>1538.25</ele>
        <time>2014-10-19T12:15:06Z</time>
      </trkpt>
      <trkpt lat="45.09475" lon="2.71767">
        <ele>1538.73</ele>
        <time>2014-10-19T12:15:12Z</time>
      </trkpt>
      <trkpt lat="45.09483" lon="2.71768">
        <ele>1538.73</ele>
        <time>2014-10-19T12:15:25Z</time>
      </trkpt>
      <trkpt lat="45.09489" lon="2.7177">
        <ele>1539.21</ele>
        <time>2014-10-19T12:15:30Z</time>
      </trkpt>
      <trkpt lat="45.09504" lon="2.71775">
        <ele>1539.69</ele>
        <time>2014-10-19T12:15:44Z</time>
      </trkpt>
      <trkpt lat="45.0953" lon="2.71774">
        <ele>1540.17</ele>
        <time>2014-10-19T12:16:09Z</time>
      </trkpt>
      <trkpt lat="45.09547" lon="2.71775">
        <ele>1540.65</ele>
        <time>2014-10-19T12:16:32Z</time>
      </trkpt>
      <trkpt lat="45.09548" lon="2.71775">
        <ele>1540.17</ele>
        <time>2014-10-19T12:16:36Z</time>
      </trkpt>
      <trkpt lat="45.0955" lon="2.71776">
        <ele>1540.65</ele>
        <time>2014-10-19T12:16:38Z</time>
      </trkpt>
      <trkpt lat="45.09554" lon="2.71778">
        <ele>1541.13</ele>
        <time>2014-10-19T12:16:42Z</time>
      </trkpt>
      <trkpt lat="45.09562" lon="2.71782">
        <ele>1542.57</ele>
        <time>2014-10-19T12:16:54Z</time>
      </trkpt>
      <trkpt lat="45.09577" lon="2.71788">
        <ele>1544.98</ele>
        <time>2014-10-19T12:17:14Z</time>
      </trkpt>
      <trkpt lat="45.09582" lon="2.71793">
        <ele>1545.46</ele>
        <time>2014-10-19T12:17:39Z</time>
      </trkpt>
      <trkpt lat="45.09589" lon="2.71804">
        <ele>1546.42</ele>
        <time>2014-10-19T12:17:57Z</time>
      </trkpt>
      <trkpt lat="45.096" lon="2.7182">
        <ele>1548.34</ele>
        <time>2014-10-19T12:18:20Z</time>
      </trkpt>
      <trkpt lat="45.09602" lon="2.71821">
        <ele>1548.82</ele>
        <time>2014-10-19T12:18:43Z</time>
      </trkpt>
      <trkpt lat="45.09606" lon="2.71822">
        <ele>1550.26</ele>
        <time>2014-10-19T12:19:02Z</time>
      </trkpt>
      <trkpt lat="45.09607" lon="2.71823">
        <ele>1550.74</ele>
        <time>2014-10-19T12:19:33Z</time>
      </trkpt>
      <trkpt lat="45.09607" lon="2.71823">
        <ele>1549.78</ele>
        <time>2014-10-19T12:20:01Z</time>
      </trkpt>
      <trkpt lat="45.09606" lon="2.71823">
        <ele>1551.22</ele>
        <time>2014-10-19T12:20:27Z</time>
      </trkpt>
      <trkpt lat="45.09609" lon="2.71822">
        <ele>1552.19</ele>
        <time>2014-10-19T12:20:30Z</time>
      </trkpt>
      <trkpt lat="45.09611" lon="2.71822">
        <ele>1551.22</ele>
        <time>2014-10-19T12:20:33Z</time>
      </trkpt>
      <trkpt lat="45.09614" lon="2.71824">
        <ele>1551.22</ele>
        <time>2014-10-19T12:20:36Z</time>
      </trkpt>
      <trkpt lat="45.09618" lon="2.71823">
        <ele>1551.22</ele>
        <time>2014-10-19T12:20:39Z</time>
      </trkpt>
      <trkpt lat="45.09624" lon="2.71823">
        <ele>1551.22</ele>
        <time>2014-10-19T12:20:48Z</time>
      </trkpt>
      <trkpt lat="45.09627" lon="2.71823">
        <ele>1551.22</ele>
        <time>2014-10-19T12:20:53Z</time>
      </trkpt>
      <trkpt lat="45.0963" lon="2.71822">
        <ele>1551.71</ele>
        <time>2014-10-19T12:20:56Z</time>
      </trkpt>
      <trkpt lat="45.09632" lon="2.71823">
        <ele>1551.71</ele>
        <time>2014-10-19T12:20:58Z</time>
      </trkpt>
      <trkpt lat="45.09641" lon="2.71821">
        <ele>1552.19</ele>
        <time>2014-10-19T12:21:06Z</time>
      </trkpt>
      <trkpt lat="45.09644" lon="2.71822">
        <ele>1552.67</ele>
        <time>2014-10-19T12:21:10Z</time>
      </trkpt>
      <trkpt lat="45.09649" lon="2.71821">
        <ele>1554.11</ele>
        <time>2014-10-19T12:21:16Z</time>
      </trkpt>
      <trkpt lat="45.09662" lon="2.7182">
        <ele>1556.51</ele>
        <time>2014-10-19T12:21:31Z</time>
      </trkpt>
      <trkpt lat="45.09673" lon="2.71819">
        <ele>1558.43</ele>
        <time>2014-10-19T12:21:47Z</time>
      </trkpt>
      <trkpt lat="45.09676" lon="2.71818">
        <ele>1559.88</ele>
        <time>2014-10-19T12:22:03Z</time>
      </trkpt>
      <trkpt lat="45.09676" lon="2.71816">
        <ele>1559.88</ele>
        <time>2014-10-19T12:22:22Z</time>
      </trkpt>
      <trkpt lat="45.09678" lon="2.71814">
        <ele>1560.84</ele>
        <time>2014-10-19T12:22:35Z</time>
      </trkpt>
      <trkpt lat="45.09685" lon="2.71807">
        <ele>1561.8</ele>
        <time>2014-10-19T12:22:51Z</time>
      </trkpt>
      <trkpt lat="45.0969" lon="2.71804">
        <ele>1565.16</ele>
        <time>2014-10-19T12:23:06Z</time>
      </trkpt>
      <trkpt lat="45.09694" lon="2.71805">
        <ele>1567.57</ele>
        <time>2014-10-19T12:23:22Z</time>
      </trkpt>
      <trkpt lat="45.09699" lon="2.71807">
        <ele>1570.93</ele>
        <time>2014-10-19T12:23:34Z</time>
      </trkpt>
      <trkpt lat="45.09705" lon="2.71807">
        <ele>1573.33</ele>
        <time>2014-10-19T12:23:50Z</time>
      </trkpt>
      <trkpt lat="45.09705" lon="2.71807">
        <ele>1573.82</ele>
        <time>2014-10-19T12:23:54Z</time>
      </trkpt>
      <trkpt lat="45.09707" lon="2.7181">
        <ele>1576.7</ele>
        <time>2014-10-19T12:24:08Z</time>
      </trkpt>
      <trkpt lat="45.09713" lon="2.71813">
        <ele>1579.58</ele>
        <time>2014-10-19T12:24:26Z</time>
      </trkpt>
      <trkpt lat="45.09714" lon="2.71813">
        <ele>1580.54</ele>
        <time>2014-10-19T12:24:34Z</time>
      </trkpt>
      <trkpt lat="45.09719" lon="2.71817">
        <ele>1581.99</ele>
        <time>2014-10-19T12:24:54Z</time>
      </trkpt>
      <trkpt lat="45.09723" lon="2.71819">
        <ele>1583.91</ele>
        <time>2014-10-19T12:25:07Z</time>
      </trkpt>
      <trkpt lat="45.09723" lon="2.71819">
        <ele>1584.39</ele>
        <time>2014-10-19T12:25:32Z</time>
      </trkpt>
      <trkpt lat="45.09724" lon="2.71815">
        <ele>1587.27</ele>
        <time>2014-10-19T12:25:44Z</time>
      </trkpt>
      <trkpt lat="45.09725" lon="2.71814">
        <ele>1589.68</ele>
        <time>2014-10-19T12:26:07Z</time>
      </trkpt>
      <trkpt lat="45.09728" lon="2.71814">
        <ele>1591.6</ele>
        <time>2014-10-19T12:26:25Z</time>
      </trkpt>
      <trkpt lat="45.09728" lon="2.71814">
        <ele>1591.6</ele>
        <time>2014-10-19T12:26:48Z</time>
      </trkpt>
      <trkpt lat="45.09729" lon="2.71813">
        <ele>1592.56</ele>
        <time>2014-10-19T12:27:22Z</time>
      </trkpt>
      <trkpt lat="45.09729" lon="2.71814">
        <ele>1593.52</ele>
        <time>2014-10-19T12:27:37Z</time>
      </trkpt>
      <trkpt lat="45.0973" lon="2.71813">
        <ele>1594.96</ele>
        <time>2014-10-19T12:27:56Z</time>
      </trkpt>
      <trkpt lat="45.09731" lon="2.71812">
        <ele>1596.41</ele>
        <time>2014-10-19T12:28:20Z</time>
      </trkpt>
      <trkpt lat="45.09732" lon="2.71812">
        <ele>1596.89</ele>
        <time>2014-10-19T12:28:23Z</time>
      </trkpt>
      <trkpt lat="45.09736" lon="2.7181">
        <ele>1598.33</ele>
        <time>2014-10-19T12:28:38Z</time>
      </trkpt>
      <trkpt lat="45.09736" lon="2.71811">
        <ele>1596.89</ele>
        <time>2014-10-19T12:29:23Z</time>
      </trkpt>
      <trkpt lat="45.09737" lon="2.71811">
        <ele>1597.85</ele>
        <time>2014-10-19T12:29:58Z</time>
      </trkpt>
      <trkpt lat="45.09737" lon="2.71811">
        <ele>1599.77</ele>
        <time>2014-10-19T12:30:24Z</time>
      </trkpt>
      <trkpt lat="45.09743" lon="2.71809">
        <ele>1601.69</ele>
        <time>2014-10-19T12:30:40Z</time>
      </trkpt>
      <trkpt lat="45.09743" lon="2.71809">
        <ele>1602.17</ele>
        <time>2014-10-19T12:30:41Z</time>
      </trkpt>
      <trkpt lat="45.09756" lon="2.71806">
        <ele>1601.21</ele>
        <time>2014-10-19T12:30:57Z</time>
      </trkpt>
      <trkpt lat="45.09757" lon="2.71806">
        <ele>1600.73</ele>
        <time>2014-10-19T12:30:58Z</time>
      </trkpt>
      <trkpt lat="45.09773" lon="2.71803">
        <ele>1602.17</ele>
        <time>2014-10-19T12:31:14Z</time>
      </trkpt>
      <trkpt lat="45.09788" lon="2.71807">
        <ele>1604.58</ele>
        <time>2014-10-19T12:31:33Z</time>
      </trkpt>
      <trkpt lat="45.09798" lon="2.71808">
        <ele>1606.5</ele>
        <time>2014-10-19T12:31:51Z</time>
      </trkpt>
      <trkpt lat="45.09799" lon="2.71808">
        <ele>1606.02</ele>
        <time>2014-10-19T12:32:22Z</time>
      </trkpt>
      <trkpt lat="45.098" lon="2.71807">
        <ele>1606.02</ele>
        <time>2014-10-19T12:32:55Z</time>
      </trkpt>
      <trkpt lat="45.098" lon="2.71808">
        <ele>1605.54</ele>
        <time>2014-10-19T12:33:36Z</time>
      </trkpt>
      <trkpt lat="45.098" lon="2.71809">
        <ele>1605.54</ele>
        <time>2014-10-19T12:33:46Z</time>
      </trkpt>
      <trkpt lat="45.09806" lon="2.7181">
        <ele>1606.02</ele>
        <time>2014-10-19T12:33:54Z</time>
      </trkpt>
      <trkpt lat="45.09821" lon="2.71814">
        <ele>1608.9</ele>
        <time>2014-10-19T12:34:12Z</time>
      </trkpt>
      <trkpt lat="45.09831" lon="2.71818">
        <ele>1611.31</ele>
        <time>2014-10-19T12:34:32Z</time>
      </trkpt>
      <trkpt lat="45.0984" lon="2.71821">
        <ele>1613.71</ele>
        <time>2014-10-19T12:34:50Z</time>
      </trkpt>
      <trkpt lat="45.09851" lon="2.71821">
        <ele>1616.59</ele>
        <time>2014-10-19T12:35:08Z</time>
      </trkpt>
      <trkpt lat="45.09854" lon="2.71821">
        <ele>1617.07</ele>
        <time>2014-10-19T12:35:12Z</time>
      </trkpt>
      <trkpt lat="45.09863" lon="2.71823">
        <ele>1619.48</ele>
        <time>2014-10-19T12:35:30Z</time>
      </trkpt>
      <trkpt lat="45.09874" lon="2.71824">
        <ele>1621.88</ele>
        <time>2014-10-19T12:35:48Z</time>
      </trkpt>
      <trkpt lat="45.09874" lon="2.71824">
        <ele>1621.88</ele>
        <time>2014-10-19T12:35:54Z</time>
      </trkpt>
      <trkpt lat="45.09877" lon="2.71826">
        <ele>1622.36</ele>
        <time>2014-10-19T12:35:58Z</time>
      </trkpt>
      <trkpt lat="45.09895" lon="2.71832">
        <ele>1624.28</ele>
        <time>2014-10-19T12:36:17Z</time>
      </trkpt>
      <trkpt lat="45.09903" lon="2.71834">
        <ele>1625.25</ele>
        <time>2014-10-19T12:36:26Z</time>
      </trkpt>
      <trkpt lat="45.09906" lon="2.71834">
        <ele>1626.21</ele>
        <time>2014-10-19T12:36:30Z</time>
      </trkpt>
      <trkpt lat="45.09915" lon="2.71837">
        <ele>1629.09</ele>
        <time>2014-10-19T12:36:43Z</time>
      </trkpt>
      <trkpt lat="45.09924" lon="2.71839">
        <ele>1631.98</ele>
        <time>2014-10-19T12:36:58Z</time>
      </trkpt>
      <trkpt lat="45.09926" lon="2.71842">
        <ele>1632.94</ele>
        <time>2014-10-19T12:37:03Z</time>
      </trkpt>
      <trkpt lat="45.09935" lon="2.71849">
        <ele>1630.05</ele>
        <time>2014-10-19T12:37:17Z</time>
      </trkpt>
      <trkpt lat="45.09942" lon="2.71857">
        <ele>1630.05</ele>
        <time>2014-10-19T12:37:24Z</time>
      </trkpt>
      <trkpt lat="45.09944" lon="2.71861">
        <ele>1629.57</ele>
        <time>2014-10-19T12:37:28Z</time>
      </trkpt>
      <trkpt lat="45.09957" lon="2.71872">
        <ele>1632.46</ele>
        <time>2014-10-19T12:37:45Z</time>
      </trkpt>
      <trkpt lat="45.09964" lon="2.71882">
        <ele>1635.34</ele>
        <time>2014-10-19T12:37:58Z</time>
      </trkpt>
      <trkpt lat="45.09974" lon="2.71893">
        <ele>1638.22</ele>
        <time>2014-10-19T12:38:16Z</time>
      </trkpt>
      <trkpt lat="45.09977" lon="2.71895">
        <ele>1639.67</ele>
        <time>2014-10-19T12:38:23Z</time>
      </trkpt>
      <trkpt lat="45.09984" lon="2.719">
        <ele>1642.07</ele>
        <time>2014-10-19T12:38:41Z</time>
      </trkpt>
      <trkpt lat="45.09992" lon="2.71908">
        <ele>1645.43</ele>
        <time>2014-10-19T12:38:55Z</time>
      </trkpt>
      <trkpt lat="45.1" lon="2.71916">
        <ele>1648.32</ele>
        <time>2014-10-19T12:39:13Z</time>
      </trkpt>
      <trkpt lat="45.10003" lon="2.71923">
        <ele>1651.2</ele>
        <time>2014-10-19T12:39:32Z</time>
      </trkpt>
      <trkpt lat="45.10004" lon="2.71924">
        <ele>1652.64</ele>
        <time>2014-10-19T12:39:35Z</time>
      </trkpt>
      <trkpt lat="45.10007" lon="2.71929">
        <ele>1655.53</ele>
        <time>2014-10-19T12:39:53Z</time>
      </trkpt>
      <trkpt lat="45.10012" lon="2.71938">
        <ele>1658.89</ele>
        <time>2014-10-19T12:40:10Z</time>
      </trkpt>
      <trkpt lat="45.10015" lon="2.71943">
        <ele>1660.81</ele>
        <time>2014-10-19T12:40:20Z</time>
      </trkpt>
      <trkpt lat="45.10017" lon="2.71947">
        <ele>1663.22</ele>
        <time>2014-10-19T12:40:37Z</time>
      </trkpt>
      <trkpt lat="45.10024" lon="2.71956">
        <ele>1666.1</ele>
        <time>2014-10-19T12:40:54Z</time>
      </trkpt>
      <trkpt lat="45.1003" lon="2.71962">
        <ele>1669.47</ele>
        <time>2014-10-19T12:41:09Z</time>
      </trkpt>
      <trkpt lat="45.10037" lon="2.71976">
        <ele>1671.39</ele>
        <time>2014-10-19T12:41:26Z</time>
      </trkpt>
      <trkpt lat="45.10042" lon="2.71986">
        <ele>1674.75</ele>
        <time>2014-10-19T12:41:40Z</time>
      </trkpt>
      <trkpt lat="45.10045" lon="2.71994">
        <ele>1674.27</ele>
        <time>2014-10-19T12:41:58Z</time>
      </trkpt>
      <trkpt lat="45.10044" lon="2.71994">
        <ele>1674.75</ele>
        <time>2014-10-19T12:42:33Z</time>
      </trkpt>
      <trkpt lat="45.10044" lon="2.71994">
        <ele>1675.23</ele>
        <time>2014-10-19T12:43:00Z</time>
      </trkpt>
      <trkpt lat="45.10044" lon="2.71993">
        <ele>1676.68</ele>
        <time>2014-10-19T12:43:34Z</time>
      </trkpt>
      <trkpt lat="45.10044" lon="2.71996">
        <ele>1676.68</ele>
        <time>2014-10-19T12:43:52Z</time>
      </trkpt>
      <trkpt lat="45.10044" lon="2.71997">
        <ele>1676.68</ele>
        <time>2014-10-19T12:43:53Z</time>
      </trkpt>
      <trkpt lat="45.10043" lon="2.72005">
        <ele>1675.23</ele>
        <time>2014-10-19T12:44:16Z</time>
      </trkpt>
      <trkpt lat="45.10042" lon="2.72031">
        <ele>1671.87</ele>
        <time>2014-10-19T12:44:35Z</time>
      </trkpt>
      <trkpt lat="45.10042" lon="2.72033">
        <ele>1671.87</ele>
        <time>2014-10-19T12:44:36Z</time>
      </trkpt>
      <trkpt lat="45.10044" lon="2.72052">
        <ele>1670.91</ele>
        <time>2014-10-19T12:45:00Z</time>
      </trkpt>
      <trkpt lat="45.10044" lon="2.7206">
        <ele>1669.47</ele>
        <time>2014-10-19T12:45:15Z</time>
      </trkpt>
      <trkpt lat="45.10044" lon="2.72073">
        <ele>1666.58</ele>
        <time>2014-10-19T12:45:32Z</time>
      </trkpt>
      <trkpt lat="45.10042" lon="2.72078">
        <ele>1663.22</ele>
        <time>2014-10-19T12:45:41Z</time>
      </trkpt>
      <trkpt lat="45.10046" lon="2.72081">
        <ele>1666.58</ele>
        <time>2014-10-19T12:46:05Z</time>
      </trkpt>
      <trkpt lat="45.10046" lon="2.72081">
        <ele>1666.58</ele>
        <time>2014-10-19T12:46:06Z</time>
      </trkpt>
      <trkpt lat="45.10046" lon="2.72086">
        <ele>1662.74</ele>
        <time>2014-10-19T12:46:23Z</time>
      </trkpt>
      <trkpt lat="45.10046" lon="2.72087">
        <ele>1662.74</ele>
        <time>2014-10-19T12:46:24Z</time>
      </trkpt>
      <trkpt lat="45.10044" lon="2.72089">
        <ele>1664.18</ele>
        <time>2014-10-19T12:46:46Z</time>
      </trkpt>
      <trkpt lat="45.10042" lon="2.72093">
        <ele>1661.78</ele>
        <time>2014-10-19T12:46:50Z</time>
      </trkpt>
      <trkpt lat="45.10043" lon="2.721">
        <ele>1658.41</ele>
        <time>2014-10-19T12:46:58Z</time>
      </trkpt>
      <trkpt lat="45.10043" lon="2.72101">
        <ele>1658.41</ele>
        <time>2014-10-19T12:46:59Z</time>
      </trkpt>
      <trkpt lat="45.10044" lon="2.72118">
        <ele>1656.01</ele>
        <time>2014-10-19T12:47:13Z</time>
      </trkpt>
      <trkpt lat="45.10041" lon="2.72136">
        <ele>1654.57</ele>
        <time>2014-10-19T12:47:27Z</time>
      </trkpt>
      <trkpt lat="45.10048" lon="2.72154">
        <ele>1653.6</ele>
        <time>2014-10-19T12:47:43Z</time>
      </trkpt>
      <trkpt lat="45.10055" lon="2.72184">
        <ele>1650.72</ele>
        <time>2014-10-19T12:48:06Z</time>
      </trkpt>
      <trkpt lat="45.10055" lon="2.72205">
        <ele>1648.32</ele>
        <time>2014-10-19T12:48:24Z</time>
      </trkpt>
      <trkpt lat="45.10054" lon="2.72229">
        <ele>1646.4</ele>
        <time>2014-10-19T12:48:43Z</time>
      </trkpt>
      <trkpt lat="45.10057" lon="2.72245">
        <ele>1643.99</ele>
        <time>2014-10-19T12:48:59Z</time>
      </trkpt>
      <trkpt lat="45.10059" lon="2.72251">
        <ele>1643.99</ele>
        <time>2014-10-19T12:49:24Z</time>
      </trkpt>
      <trkpt lat="45.10061" lon="2.72263">
        <ele>1643.51</ele>
        <time>2014-10-19T12:49:41Z</time>
      </trkpt>
      <trkpt lat="45.10059" lon="2.72279">
        <ele>1643.03</ele>
        <time>2014-10-19T12:49:58Z</time>
      </trkpt>
      <trkpt lat="45.10059" lon="2.72287">
        <ele>1641.59</ele>
        <time>2014-10-19T12:50:19Z</time>
      </trkpt>
      <trkpt lat="45.10057" lon="2.72304">
        <ele>1639.19</ele>
        <time>2014-10-19T12:50:39Z</time>
      </trkpt>
      <trkpt lat="45.10057" lon="2.72305">
        <ele>1639.19</ele>
        <time>2014-10-19T12:51:09Z</time>
      </trkpt>
      <trkpt lat="45.10056" lon="2.7231">
        <ele>1638.22</ele>
        <time>2014-10-19T12:51:24Z</time>
      </trkpt>
      <trkpt lat="45.10055" lon="2.72319">
        <ele>1637.74</ele>
        <time>2014-10-19T12:51:29Z</time>
      </trkpt>
      <trkpt lat="45.10052" lon="2.72338">
        <ele>1638.22</ele>
        <time>2014-10-19T12:51:42Z</time>
      </trkpt>
      <trkpt lat="45.10051" lon="2.72344">
        <ele>1637.26</ele>
        <time>2014-10-19T12:51:50Z</time>
      </trkpt>
      <trkpt lat="45.10049" lon="2.72362">
        <ele>1635.34</ele>
        <time>2014-10-19T12:52:08Z</time>
      </trkpt>
      <trkpt lat="45.1005" lon="2.72371">
        <ele>1632.94</ele>
        <time>2014-10-19T12:52:24Z</time>
      </trkpt>
      <trkpt lat="45.10048" lon="2.72378">
        <ele>1630.53</ele>
        <time>2014-10-19T12:52:42Z</time>
      </trkpt>
      <trkpt lat="45.10044" lon="2.72386">
        <ele>1628.61</ele>
        <time>2014-10-19T12:53:12Z</time>
      </trkpt>
      <trkpt lat="45.10043" lon="2.72391">
        <ele>1627.65</ele>
        <time>2014-10-19T12:53:16Z</time>
      </trkpt>
      <trkpt lat="45.10042" lon="2.72398">
        <ele>1626.69</ele>
        <time>2014-10-19T12:53:21Z</time>
      </trkpt>
      <trkpt lat="45.1004" lon="2.72405">
        <ele>1625.73</ele>
        <time>2014-10-19T12:53:43Z</time>
      </trkpt>
      <trkpt lat="45.10037" lon="2.72419">
        <ele>1625.25</ele>
        <time>2014-10-19T12:53:54Z</time>
      </trkpt>
      <trkpt lat="45.10034" lon="2.72426">
        <ele>1623.32</ele>
        <time>2014-10-19T12:54:00Z</time>
      </trkpt>
      <trkpt lat="45.10031" lon="2.72445">
        <ele>1622.36</ele>
        <time>2014-10-19T12:54:21Z</time>
      </trkpt>
      <trkpt lat="45.10029" lon="2.72449">
        <ele>1619.48</ele>
        <time>2014-10-19T12:54:38Z</time>
      </trkpt>
      <trkpt lat="45.10028" lon="2.72463">
        <ele>1616.11</ele>
        <time>2014-10-19T12:54:55Z</time>
      </trkpt>
      <trkpt lat="45.10035" lon="2.72477">
        <ele>1613.71</ele>
        <time>2014-10-19T12:55:13Z</time>
      </trkpt>
      <trkpt lat="45.10034" lon="2.72499">
        <ele>1610.83</ele>
        <time>2014-10-19T12:55:31Z</time>
      </trkpt>
      <trkpt lat="45.10034" lon="2.72501">
        <ele>1610.35</ele>
        <time>2014-10-19T12:55:53Z</time>
      </trkpt>
      <trkpt lat="45.10033" lon="2.72503">
        <ele>1609.38</ele>
        <time>2014-10-19T12:56:20Z</time>
      </trkpt>
      <trkpt lat="45.10035" lon="2.72518">
        <ele>1609.38</ele>
        <time>2014-10-19T12:56:37Z</time>
      </trkpt>
      <trkpt lat="45.10037" lon="2.72537">
        <ele>1607.46</ele>
        <time>2014-10-19T12:56:55Z</time>
      </trkpt>
      <trkpt lat="45.10038" lon="2.72547">
        <ele>1607.46</ele>
        <time>2014-10-19T12:57:12Z</time>
      </trkpt>
      <trkpt lat="45.10037" lon="2.72552">
        <ele>1607.94</ele>
        <time>2014-10-19T12:57:15Z</time>
      </trkpt>
      <trkpt lat="45.10038" lon="2.72561">
        <ele>1607.46</ele>
        <time>2014-10-19T12:57:22Z</time>
      </trkpt>
      <trkpt lat="45.1004" lon="2.72577">
        <ele>1606.5</ele>
        <time>2014-10-19T12:57:39Z</time>
      </trkpt>
      <trkpt lat="45.10039" lon="2.72587">
        <ele>1606.98</ele>
        <time>2014-10-19T12:57:45Z</time>
      </trkpt>
      <trkpt lat="45.10036" lon="2.7261">
        <ele>1606.98</ele>
        <time>2014-10-19T12:58:00Z</time>
      </trkpt>
      <trkpt lat="45.10037" lon="2.72623">
        <ele>1607.46</ele>
        <time>2014-10-19T12:58:09Z</time>
      </trkpt>
      <trkpt lat="45.10038" lon="2.72646">
        <ele>1610.35</ele>
        <time>2014-10-19T12:58:30Z</time>
      </trkpt>
      <trkpt lat="45.10035" lon="2.7266">
        <ele>1613.23</ele>
        <time>2014-10-19T12:58:47Z</time>
      </trkpt>
      <trkpt lat="45.10036" lon="2.72668">
        <ele>1616.11</ele>
        <time>2014-10-19T12:58:57Z</time>
      </trkpt>
      <trkpt lat="45.10037" lon="2.72678">
        <ele>1618.04</ele>
        <time>2014-10-19T12:59:13Z</time>
      </trkpt>
      <trkpt lat="45.10038" lon="2.72691">
        <ele>1620.92</ele>
        <time>2014-10-19T12:59:30Z</time>
      </trkpt>
      <trkpt lat="45.10038" lon="2.72703">
        <ele>1623.8</ele>
        <time>2014-10-19T12:59:44Z</time>
      </trkpt>
      <trkpt lat="45.10039" lon="2.7271">
        <ele>1626.21</ele>
        <time>2014-10-19T12:59:53Z</time>
      </trkpt>
      <trkpt lat="45.10039" lon="2.72723">
        <ele>1627.65</ele>
        <time>2014-10-19T13:00:09Z</time>
      </trkpt>
      <trkpt lat="45.1004" lon="2.72732">
        <ele>1631.01</ele>
        <time>2014-10-19T13:00:24Z</time>
      </trkpt>
      <trkpt lat="45.10041" lon="2.72739">
        <ele>1633.42</ele>
        <time>2014-10-19T13:00:41Z</time>
      </trkpt>
      <trkpt lat="45.1004" lon="2.72742">
        <ele>1635.34</ele>
        <time>2014-10-19T13:00:46Z</time>
      </trkpt>
      <trkpt lat="45.10041" lon="2.72752">
        <ele>1636.78</ele>
        <time>2014-10-19T13:01:04Z</time>
      </trkpt>
      <trkpt lat="45.10042" lon="2.72756">
        <ele>1640.15</ele>
        <time>2014-10-19T13:01:16Z</time>
      </trkpt>
      <trkpt lat="45.10043" lon="2.72758">
        <ele>1643.03</ele>
        <time>2014-10-19T13:01:33Z</time>
      </trkpt>
      <trkpt lat="45.10043" lon="2.72759">
        <ele>1643.99</ele>
        <time>2014-10-19T13:01:41Z</time>
      </trkpt>
      <trkpt lat="45.10043" lon="2.72761">
        <ele>1646.88</ele>
        <time>2014-10-19T13:01:48Z</time>
      </trkpt>
      <trkpt lat="45.10043" lon="2.72775">
        <ele>1646.88</ele>
        <time>2014-10-19T13:02:04Z</time>
      </trkpt>
      <trkpt lat="45.10048" lon="2.72778">
        <ele>1650.24</ele>
        <time>2014-10-19T13:02:17Z</time>
      </trkpt>
      <trkpt lat="45.10048" lon="2.72779">
        <ele>1651.2</ele>
        <time>2014-10-19T13:02:19Z</time>
      </trkpt>
      <trkpt lat="45.10047" lon="2.72787">
        <ele>1652.64</ele>
        <time>2014-10-19T13:02:37Z</time>
      </trkpt>
      <trkpt lat="45.10048" lon="2.72794">
        <ele>1656.01</ele>
        <time>2014-10-19T13:02:49Z</time>
      </trkpt>
      <trkpt lat="45.10047" lon="2.72803">
        <ele>1657.45</ele>
        <time>2014-10-19T13:03:06Z</time>
      </trkpt>
      <trkpt lat="45.10048" lon="2.72809">
        <ele>1660.33</ele>
        <time>2014-10-19T13:03:15Z</time>
      </trkpt>
      <trkpt lat="45.10043" lon="2.72814">
        <ele>1662.74</ele>
        <time>2014-10-19T13:03:31Z</time>
      </trkpt>
      <trkpt lat="45.10044" lon="2.72821">
        <ele>1663.7</ele>
        <time>2014-10-19T13:03:47Z</time>
      </trkpt>
      <trkpt lat="45.10044" lon="2.72819">
        <ele>1662.74</ele>
        <time>2014-10-19T13:04:10Z</time>
      </trkpt>
      <trkpt lat="45.10044" lon="2.7282">
        <ele>1664.18</ele>
        <time>2014-10-19T13:05:03Z</time>
      </trkpt>
      <trkpt lat="45.10043" lon="2.7282">
        <ele>1662.74</ele>
        <time>2014-10-19T13:05:59Z</time>
      </trkpt>
      <trkpt lat="45.10044" lon="2.7282">
        <ele>1662.74</ele>
        <time>2014-10-19T13:06:49Z</time>
      </trkpt>
      <trkpt lat="45.10044" lon="2.7282">
        <ele>1661.78</ele>
        <time>2014-10-19T13:07:46Z</time>
      </trkpt>
      <trkpt lat="45.10043" lon="2.7282">
        <ele>1663.22</ele>
        <time>2014-10-19T13:08:15Z</time>
      </trkpt>
      <trkpt lat="45.10044" lon="2.7282">
        <ele>1660.33</ele>
        <time>2014-10-19T13:08:31Z</time>
      </trkpt>
      <trkpt lat="45.10047" lon="2.72818">
        <ele>1657.45</ele>
        <time>2014-10-19T13:08:49Z</time>
      </trkpt>
      <trkpt lat="45.10054" lon="2.72819">
        <ele>1655.05</ele>
        <time>2014-10-19T13:09:06Z</time>
      </trkpt>
      <trkpt lat="45.10055" lon="2.72835">
        <ele>1652.16</ele>
        <time>2014-10-19T13:09:24Z</time>
      </trkpt>
      <trkpt lat="45.10054" lon="2.72846">
        <ele>1649.28</ele>
        <time>2014-10-19T13:09:41Z</time>
      </trkpt>
      <trkpt lat="45.10055" lon="2.72859">
        <ele>1645.91</ele>
        <time>2014-10-19T13:09:56Z</time>
      </trkpt>
      <trkpt lat="45.10055" lon="2.72861">
        <ele>1645.43</ele>
        <time>2014-10-19T13:09:58Z</time>
      </trkpt>
      <trkpt lat="45.10057" lon="2.72868">
        <ele>1644.47</ele>
        <time>2014-10-19T13:10:04Z</time>
      </trkpt>
      <trkpt lat="45.10062" lon="2.72881">
        <ele>1642.55</ele>
        <time>2014-10-19T13:10:14Z</time>
      </trkpt>
      <trkpt lat="45.10063" lon="2.72883">
        <ele>1642.07</ele>
        <time>2014-10-19T13:10:16Z</time>
      </trkpt>
      <trkpt lat="45.10068" lon="2.72894">
        <ele>1639.19</ele>
        <time>2014-10-19T13:10:29Z</time>
      </trkpt>
      <trkpt lat="45.10072" lon="2.72899">
        <ele>1636.3</ele>
        <time>2014-10-19T13:10:41Z</time>
      </trkpt>
      <trkpt lat="45.10078" lon="2.72906">
        <ele>1632.94</ele>
        <time>2014-10-19T13:10:55Z</time>
      </trkpt>
      <trkpt lat="45.10082" lon="2.72914">
        <ele>1629.57</ele>
        <time>2014-10-19T13:11:06Z</time>
      </trkpt>
      <trkpt lat="45.10084" lon="2.72923">
        <ele>1627.17</ele>
        <time>2014-10-19T13:11:17Z</time>
      </trkpt>
      <trkpt lat="45.10086" lon="2.72936">
        <ele>1624.77</ele>
        <time>2014-10-19T13:11:29Z</time>
      </trkpt>
      <trkpt lat="45.10088" lon="2.72947">
        <ele>1623.8</ele>
        <time>2014-10-19T13:11:36Z</time>
      </trkpt>
      <trkpt lat="45.10087" lon="2.72951">
        <ele>1623.8</ele>
        <time>2014-10-19T13:11:38Z</time>
      </trkpt>
      <trkpt lat="45.10088" lon="2.72966">
        <ele>1622.36</ele>
        <time>2014-10-19T13:11:47Z</time>
      </trkpt>
      <trkpt lat="45.10089" lon="2.72993">
        <ele>1623.32</ele>
        <time>2014-10-19T13:12:06Z</time>
      </trkpt>
      <trkpt lat="45.10088" lon="2.73003">
        <ele>1623.32</ele>
        <time>2014-10-19T13:12:23Z</time>
      </trkpt>
      <trkpt lat="45.10088" lon="2.73004">
        <ele>1623.32</ele>
        <time>2014-10-19T13:12:24Z</time>
      </trkpt>
      <trkpt lat="45.10088" lon="2.73013">
        <ele>1619.96</ele>
        <time>2014-10-19T13:12:32Z</time>
      </trkpt>
      <trkpt lat="45.10088" lon="2.73017">
        <ele>1620.92</ele>
        <time>2014-10-19T13:12:40Z</time>
      </trkpt>
      <trkpt lat="45.10089" lon="2.7302">
        <ele>1619.48</ele>
        <time>2014-10-19T13:12:43Z</time>
      </trkpt>
      <trkpt lat="45.10089" lon="2.73021">
        <ele>1618.52</ele>
        <time>2014-10-19T13:12:44Z</time>
      </trkpt>
      <trkpt lat="45.10091" lon="2.73023">
        <ele>1617.56</ele>
        <time>2014-10-19T13:12:46Z</time>
      </trkpt>
      <trkpt lat="45.10093" lon="2.7303">
        <ele>1616.11</ele>
        <time>2014-10-19T13:12:52Z</time>
      </trkpt>
      <trkpt lat="45.10096" lon="2.73033">
        <ele>1616.11</ele>
        <time>2014-10-19T13:12:56Z</time>
      </trkpt>
      <trkpt lat="45.10089" lon="2.73039">
        <ele>1612.75</ele>
        <time>2014-10-19T13:13:12Z</time>
      </trkpt>
      <trkpt lat="45.10087" lon="2.73041">
        <ele>1611.79</ele>
        <time>2014-10-19T13:13:27Z</time>
      </trkpt>
      <trkpt lat="45.10087" lon="2.73055">
        <ele>1613.23</ele>
        <time>2014-10-19T13:13:40Z</time>
      </trkpt>
      <trkpt lat="45.10087" lon="2.73082">
        <ele>1616.59</ele>
        <time>2014-10-19T13:14:01Z</time>
      </trkpt>
      <trkpt lat="45.10086" lon="2.7309">
        <ele>1616.59</ele>
        <time>2014-10-19T13:14:08Z</time>
      </trkpt>
      <trkpt lat="45.10087" lon="2.73096">
        <ele>1618.04</ele>
        <time>2014-10-19T13:14:13Z</time>
      </trkpt>
      <trkpt lat="45.1009" lon="2.73109">
        <ele>1620.44</ele>
        <time>2014-10-19T13:14:26Z</time>
      </trkpt>
      <trkpt lat="45.10093" lon="2.73125">
        <ele>1620.92</ele>
        <time>2014-10-19T13:14:40Z</time>
      </trkpt>
      <trkpt lat="45.10091" lon="2.73133">
        <ele>1621.88</ele>
        <time>2014-10-19T13:14:46Z</time>
      </trkpt>
      <trkpt lat="45.10093" lon="2.73163">
        <ele>1622.84</ele>
        <time>2014-10-19T13:15:08Z</time>
      </trkpt>
      <trkpt lat="45.10092" lon="2.73192">
        <ele>1625.73</ele>
        <time>2014-10-19T13:15:25Z</time>
      </trkpt>
      <trkpt lat="45.10091" lon="2.73194">
        <ele>1624.77</ele>
        <time>2014-10-19T13:15:27Z</time>
      </trkpt>
      <trkpt lat="45.10089" lon="2.73209">
        <ele>1625.73</ele>
        <time>2014-10-19T13:15:38Z</time>
      </trkpt>
      <trkpt lat="45.10083" lon="2.73233">
        <ele>1626.21</ele>
        <time>2014-10-19T13:15:55Z</time>
      </trkpt>
      <trkpt lat="45.10076" lon="2.7325">
        <ele>1626.69</ele>
        <time>2014-10-19T13:16:09Z</time>
      </trkpt>
      <trkpt lat="45.10068" lon="2.73277">
        <ele>1629.57</ele>
        <time>2014-10-19T13:16:29Z</time>
      </trkpt>
      <trkpt lat="45.10062" lon="2.73297">
        <ele>1631.49</ele>
        <time>2014-10-19T13:16:44Z</time>
      </trkpt>
      <trkpt lat="45.1006" lon="2.73305">
        <ele>1632.46</ele>
        <time>2014-10-19T13:16:50Z</time>
      </trkpt>
      <trkpt lat="45.10059" lon="2.73326">
        <ele>1635.34</ele>
        <time>2014-10-19T13:17:07Z</time>
      </trkpt>
      <trkpt lat="45.1006" lon="2.73338">
        <ele>1636.3</ele>
        <time>2014-10-19T13:17:18Z</time>
      </trkpt>
      <trkpt lat="45.10066" lon="2.73362">
        <ele>1636.78</ele>
        <time>2014-10-19T13:17:40Z</time>
      </trkpt>
      <trkpt lat="45.10067" lon="2.73368">
        <ele>1636.3</ele>
        <time>2014-10-19T13:17:44Z</time>
      </trkpt>
      <trkpt lat="45.10069" lon="2.73374">
        <ele>1636.3</ele>
        <time>2014-10-19T13:17:48Z</time>
      </trkpt>
      <trkpt lat="45.10071" lon="2.73387">
        <ele>1635.82</ele>
        <time>2014-10-19T13:17:56Z</time>
      </trkpt>
      <trkpt lat="45.10069" lon="2.73394">
        <ele>1636.3</ele>
        <time>2014-10-19T13:18:01Z</time>
      </trkpt>
      <trkpt lat="45.10069" lon="2.734">
        <ele>1636.3</ele>
        <time>2014-10-19T13:18:05Z</time>
      </trkpt>
      <trkpt lat="45.10068" lon="2.73422">
        <ele>1637.26</ele>
        <time>2014-10-19T13:18:19Z</time>
      </trkpt>
      <trkpt lat="45.10068" lon="2.73427">
        <ele>1637.26</ele>
        <time>2014-10-19T13:18:23Z</time>
      </trkpt>
      <trkpt lat="45.10067" lon="2.73456">
        <ele>1636.78</ele>
        <time>2014-10-19T13:18:41Z</time>
      </trkpt>
      <trkpt lat="45.10058" lon="2.73476">
        <ele>1639.67</ele>
        <time>2014-10-19T13:18:59Z</time>
      </trkpt>
      <trkpt lat="45.10055" lon="2.73479">
        <ele>1640.15</ele>
        <time>2014-10-19T13:19:03Z</time>
      </trkpt>
      <trkpt lat="45.10053" lon="2.73485">
        <ele>1640.63</ele>
        <time>2014-10-19T13:19:08Z</time>
      </trkpt>
      <trkpt lat="45.10047" lon="2.73491">
        <ele>1642.07</ele>
        <time>2014-10-19T13:19:17Z</time>
      </trkpt>
      <trkpt lat="45.10046" lon="2.73495">
        <ele>1643.03</ele>
        <time>2014-10-19T13:19:20Z</time>
      </trkpt>
      <trkpt lat="45.10034" lon="2.73509">
        <ele>1645.43</ele>
        <time>2014-10-19T13:19:38Z</time>
      </trkpt>
      <trkpt lat="45.10026" lon="2.73516">
        <ele>1645.91</ele>
        <time>2014-10-19T13:19:55Z</time>
      </trkpt>
      <trkpt lat="45.10025" lon="2.73518">
        <ele>1645.91</ele>
        <time>2014-10-19T13:20:03Z</time>
      </trkpt>
      <trkpt lat="45.10023" lon="2.73523">
        <ele>1647.36</ele>
        <time>2014-10-19T13:20:08Z</time>
      </trkpt>
      <trkpt lat="45.10022" lon="2.73525">
        <ele>1647.36</ele>
        <time>2014-10-19T13:20:10Z</time>
      </trkpt>
      <trkpt lat="45.10022" lon="2.73535">
        <ele>1647.36</ele>
        <time>2014-10-19T13:20:16Z</time>
      </trkpt>
      <trkpt lat="45.10022" lon="2.73548">
        <ele>1650.72</ele>
        <time>2014-10-19T13:20:27Z</time>
      </trkpt>
      <trkpt lat="45.10022" lon="2.7355">
        <ele>1651.2</ele>
        <time>2014-10-19T13:20:29Z</time>
      </trkpt>
      <trkpt lat="45.10019" lon="2.7356">
        <ele>1653.12</ele>
        <time>2014-10-19T13:20:39Z</time>
      </trkpt>
      <trkpt lat="45.10022" lon="2.73571">
        <ele>1652.16</ele>
        <time>2014-10-19T13:20:46Z</time>
      </trkpt>
      <trkpt lat="45.10025" lon="2.73595">
        <ele>1652.64</ele>
        <time>2014-10-19T13:21:01Z</time>
      </trkpt>
      <trkpt lat="45.10022" lon="2.73609">
        <ele>1652.16</ele>
        <time>2014-10-19T13:21:10Z</time>
      </trkpt>
      <trkpt lat="45.10018" lon="2.73617">
        <ele>1656.49</ele>
        <time>2014-10-19T13:21:17Z</time>
      </trkpt>
      <trkpt lat="45.10013" lon="2.73625">
        <ele>1657.45</ele>
        <time>2014-10-19T13:21:27Z</time>
      </trkpt>
      <trkpt lat="45.10011" lon="2.7363">
        <ele>1658.89</ele>
        <time>2014-10-19T13:21:32Z</time>
      </trkpt>
      <trkpt lat="45.10003" lon="2.73652">
        <ele>1659.85</ele>
        <time>2014-10-19T13:21:52Z</time>
      </trkpt>
      <trkpt lat="45.10001" lon="2.73671">
        <ele>1662.26</ele>
        <time>2014-10-19T13:22:11Z</time>
      </trkpt>
      <trkpt lat="45.09996" lon="2.73685">
        <ele>1665.62</ele>
        <time>2014-10-19T13:22:28Z</time>
      </trkpt>
      <trkpt lat="45.09989" lon="2.73696">
        <ele>1668.51</ele>
        <time>2014-10-19T13:22:42Z</time>
      </trkpt>
      <trkpt lat="45.09984" lon="2.73704">
        <ele>1668.99</ele>
        <time>2014-10-19T13:22:52Z</time>
      </trkpt>
      <trkpt lat="45.09975" lon="2.73722">
        <ele>1671.87</ele>
        <time>2014-10-19T13:23:11Z</time>
      </trkpt>
      <trkpt lat="45.09973" lon="2.7373">
        <ele>1674.75</ele>
        <time>2014-10-19T13:23:20Z</time>
      </trkpt>
      <trkpt lat="45.09971" lon="2.73734">
        <ele>1675.23</ele>
        <time>2014-10-19T13:23:25Z</time>
      </trkpt>
      <trkpt lat="45.09968" lon="2.7374">
        <ele>1675.23</ele>
        <time>2014-10-19T13:23:32Z</time>
      </trkpt>
      <trkpt lat="45.09961" lon="2.73756">
        <ele>1678.12</ele>
        <time>2014-10-19T13:23:52Z</time>
      </trkpt>
      <trkpt lat="45.09953" lon="2.73767">
        <ele>1681.48</ele>
        <time>2014-10-19T13:24:08Z</time>
      </trkpt>
      <trkpt lat="45.09952" lon="2.73769">
        <ele>1681.96</ele>
        <time>2014-10-19T13:24:12Z</time>
      </trkpt>
      <trkpt lat="45.09942" lon="2.73782">
        <ele>1684.37</ele>
        <time>2014-10-19T13:24:32Z</time>
      </trkpt>
      <trkpt lat="45.09937" lon="2.73787">
        <ele>1684.85</ele>
        <time>2014-10-19T13:24:40Z</time>
      </trkpt>
      <trkpt lat="45.09933" lon="2.73792">
        <ele>1684.85</ele>
        <time>2014-10-19T13:24:47Z</time>
      </trkpt>
      <trkpt lat="45.09931" lon="2.73794">
        <ele>1685.33</ele>
        <time>2014-10-19T13:24:51Z</time>
      </trkpt>
      <trkpt lat="45.09924" lon="2.73797">
        <ele>1685.81</ele>
        <time>2014-10-19T13:25:12Z</time>
      </trkpt>
      <trkpt lat="45.09922" lon="2.73796">
        <ele>1685.81</ele>
        <time>2014-10-19T13:25:33Z</time>
      </trkpt>
      <trkpt lat="45.09924" lon="2.73796">
        <ele>1684.85</ele>
        <time>2014-10-19T13:25:46Z</time>
      </trkpt>
      <trkpt lat="45.09929" lon="2.73801">
        <ele>1684.85</ele>
        <time>2014-10-19T13:26:04Z</time>
      </trkpt>
      <trkpt lat="45.09928" lon="2.73801">
        <ele>1680.52</ele>
        <time>2014-10-19T13:26:11Z</time>
      </trkpt>
      <trkpt lat="45.09928" lon="2.73801">
        <ele>1684.37</ele>
        <time>2014-10-19T13:26:12Z</time>
      </trkpt>
      <trkpt lat="45.09928" lon="2.73801">
        <ele>1688.21</ele>
        <time>2014-10-19T13:26:17Z</time>
      </trkpt>
      <trkpt lat="45.09928" lon="2.73801">
        <ele>1681.96</ele>
        <time>2014-10-19T13:26:20Z</time>
      </trkpt>
      <trkpt lat="45.09928" lon="2.73801">
        <ele>1684.37</ele>
        <time>2014-10-19T13:26:21Z</time>
      </trkpt>
      <trkpt lat="45.09928" lon="2.73801">
        <ele>1676.68</ele>
        <time>2014-10-19T13:26:23Z</time>
      </trkpt>
      <trkpt lat="45.09928" lon="2.73801">
        <ele>1684.85</ele>
        <time>2014-10-19T13:26:24Z</time>
      </trkpt>
      <trkpt lat="45.09928" lon="2.73801">
        <ele>1681.48</ele>
        <time>2014-10-19T13:26:27Z</time>
      </trkpt>
      <trkpt lat="45.09928" lon="2.73801">
        <ele>1685.33</ele>
        <time>2014-10-19T13:26:28Z</time>
      </trkpt>
      <trkpt lat="45.09928" lon="2.73801">
        <ele>1693.98</ele>
        <time>2014-10-19T13:26:29Z</time>
      </trkpt>
      <trkpt lat="45.09928" lon="2.73801">
        <ele>1682.93</ele>
        <time>2014-10-19T13:26:30Z</time>
      </trkpt>
      <trkpt lat="45.09928" lon="2.73801">
        <ele>1688.21</ele>
        <time>2014-10-19T13:26:34Z</time>
      </trkpt>
      <trkpt lat="45.09928" lon="2.73801">
        <ele>1684.85</ele>
        <time>2014-10-19T13:26:35Z</time>
      </trkpt>
      <trkpt lat="45.09928" lon="2.73801">
        <ele>1686.77</ele>
        <time>2014-10-19T13:26:46Z</time>
      </trkpt>
      <trkpt lat="45.09928" lon="2.73801">
        <ele>1676.2</ele>
        <time>2014-10-19T13:26:47Z</time>
      </trkpt>
      <trkpt lat="45.09928" lon="2.73801">
        <ele>1681.48</ele>
        <time>2014-10-19T13:26:48Z</time>
      </trkpt>
      <trkpt lat="45.09928" lon="2.73801">
        <ele>1686.77</ele>
        <time>2014-10-19T13:26:49Z</time>
      </trkpt>
      <trkpt lat="45.09928" lon="2.73801">
        <ele>1685.81</ele>
        <time>2014-10-19T13:26:50Z</time>
      </trkpt>
      <trkpt lat="45.09928" lon="2.73801">
        <ele>1682.44</ele>
        <time>2014-10-19T13:27:08Z</time>
      </trkpt>
      <trkpt lat="45.09928" lon="2.73801">
        <ele>1687.25</ele>
        <time>2014-10-19T13:27:09Z</time>
      </trkpt>
      <trkpt lat="45.09928" lon="2.73801">
        <ele>1683.89</ele>
        <time>2014-10-19T13:27:20Z</time>
      </trkpt>
      <trkpt lat="45.09928" lon="2.73801">
        <ele>1686.29</ele>
        <time>2014-10-19T13:27:25Z</time>
      </trkpt>
      <trkpt lat="45.0993" lon="2.73805">
        <ele>1685.81</ele>
        <time>2014-10-19T13:27:36Z</time>
      </trkpt>
      <trkpt lat="45.09934" lon="2.7382">
        <ele>1685.81</ele>
        <time>2014-10-19T13:27:46Z</time>
      </trkpt>
      <trkpt lat="45.09937" lon="2.73856">
        <ele>1685.33</ele>
        <time>2014-10-19T13:28:08Z</time>
      </trkpt>
      <trkpt lat="45.09936" lon="2.73882">
        <ele>1688.21</ele>
        <time>2014-10-19T13:28:26Z</time>
      </trkpt>
      <trkpt lat="45.09938" lon="2.73899">
        <ele>1689.17</ele>
        <time>2014-10-19T13:28:37Z</time>
      </trkpt>
      <trkpt lat="45.09938" lon="2.73906">
        <ele>1689.17</ele>
        <time>2014-10-19T13:28:46Z</time>
      </trkpt>
      <trkpt lat="45.09943" lon="2.73921">
        <ele>1687.73</ele>
        <time>2014-10-19T13:28:55Z</time>
      </trkpt>
      <trkpt lat="45.09942" lon="2.7395">
        <ele>1688.69</ele>
        <time>2014-10-19T13:29:14Z</time>
      </trkpt>
      <trkpt lat="45.09937" lon="2.73965">
        <ele>1690.14</ele>
        <time>2014-10-19T13:29:28Z</time>
      </trkpt>
      <trkpt lat="45.09932" lon="2.73976">
        <ele>1691.58</ele>
        <time>2014-10-19T13:29:47Z</time>
      </trkpt>
      <trkpt lat="45.09933" lon="2.73983">
        <ele>1692.06</ele>
        <time>2014-10-19T13:29:56Z</time>
      </trkpt>
      <trkpt lat="45.09931" lon="2.73987">
        <ele>1692.06</ele>
        <time>2014-10-19T13:29:59Z</time>
      </trkpt>
      <trkpt lat="45.09924" lon="2.74001">
        <ele>1692.54</ele>
        <time>2014-10-19T13:30:18Z</time>
      </trkpt>
      <trkpt lat="45.09924" lon="2.74001">
        <ele>1691.1</ele>
        <time>2014-10-19T13:30:44Z</time>
      </trkpt>
      <trkpt lat="45.09922" lon="2.74003">
        <ele>1690.14</ele>
        <time>2014-10-19T13:31:06Z</time>
      </trkpt>
      <trkpt lat="45.09915" lon="2.74011">
        <ele>1686.77</ele>
        <time>2014-10-19T13:31:23Z</time>
      </trkpt>
      <trkpt lat="45.09909" lon="2.74016">
        <ele>1683.89</ele>
        <time>2014-10-19T13:31:39Z</time>
      </trkpt>
      <trkpt lat="45.09904" lon="2.7402">
        <ele>1681.48</ele>
        <time>2014-10-19T13:31:55Z</time>
      </trkpt>
      <trkpt lat="45.09897" lon="2.74026">
        <ele>1681</ele>
        <time>2014-10-19T13:32:11Z</time>
      </trkpt>
      <trkpt lat="45.09892" lon="2.74027">
        <ele>1677.64</ele>
        <time>2014-10-19T13:32:27Z</time>
      </trkpt>
      <trkpt lat="45.09888" lon="2.74031">
        <ele>1674.27</ele>
        <time>2014-10-19T13:32:41Z</time>
      </trkpt>
      <trkpt lat="45.09887" lon="2.74032">
        <ele>1674.27</ele>
        <time>2014-10-19T13:32:45Z</time>
      </trkpt>
      <trkpt lat="45.09885" lon="2.74032">
        <ele>1671.87</ele>
        <time>2014-10-19T13:32:59Z</time>
      </trkpt>
      <trkpt lat="45.09882" lon="2.74036">
        <ele>1669.47</ele>
        <time>2014-10-19T13:33:15Z</time>
      </trkpt>
      <trkpt lat="45.09874" lon="2.74044">
        <ele>1666.58</ele>
        <time>2014-10-19T13:33:32Z</time>
      </trkpt>
      <trkpt lat="45.09869" lon="2.74055">
        <ele>1663.22</ele>
        <time>2014-10-19T13:33:49Z</time>
      </trkpt>
      <trkpt lat="45.09865" lon="2.7406">
        <ele>1661.3</ele>
        <time>2014-10-19T13:34:04Z</time>
      </trkpt>
      <trkpt lat="45.09862" lon="2.74062">
        <ele>1660.33</ele>
        <time>2014-10-19T13:34:08Z</time>
      </trkpt>
      <trkpt lat="45.0985" lon="2.74072">
        <ele>1657.45</ele>
        <time>2014-10-19T13:34:26Z</time>
      </trkpt>
      <trkpt lat="45.09842" lon="2.74078">
        <ele>1655.05</ele>
        <time>2014-10-19T13:34:44Z</time>
      </trkpt>
      <trkpt lat="45.09838" lon="2.74089">
        <ele>1652.16</ele>
        <time>2014-10-19T13:35:01Z</time>
      </trkpt>
      <trkpt lat="45.09838" lon="2.74092">
        <ele>1650.72</ele>
        <time>2014-10-19T13:35:05Z</time>
      </trkpt>
      <trkpt lat="45.09824" lon="2.74102">
        <ele>1648.32</ele>
        <time>2014-10-19T13:35:25Z</time>
      </trkpt>
      <trkpt lat="45.09816" lon="2.74112">
        <ele>1645.43</ele>
        <time>2014-10-19T13:35:41Z</time>
      </trkpt>
      <trkpt lat="45.09807" lon="2.74117">
        <ele>1642.07</ele>
        <time>2014-10-19T13:35:53Z</time>
      </trkpt>
      <trkpt lat="45.09803" lon="2.74117">
        <ele>1641.59</ele>
        <time>2014-10-19T13:35:57Z</time>
      </trkpt>
      <trkpt lat="45.09798" lon="2.74121">
        <ele>1643.51</ele>
        <time>2014-10-19T13:36:08Z</time>
      </trkpt>
      <trkpt lat="45.09798" lon="2.74123">
        <ele>1644.95</ele>
        <time>2014-10-19T13:36:25Z</time>
      </trkpt>
      <trkpt lat="45.09791" lon="2.74129">
        <ele>1644.47</ele>
        <time>2014-10-19T13:36:44Z</time>
      </trkpt>
      <trkpt lat="45.09783" lon="2.74137">
        <ele>1641.59</ele>
        <time>2014-10-19T13:37:00Z</time>
      </trkpt>
      <trkpt lat="45.09782" lon="2.74136">
        <ele>1641.59</ele>
        <time>2014-10-19T13:37:01Z</time>
      </trkpt>
      <trkpt lat="45.09781" lon="2.74133">
        <ele>1641.11</ele>
        <time>2014-10-19T13:37:20Z</time>
      </trkpt>
      <trkpt lat="45.0978" lon="2.74132">
        <ele>1638.22</ele>
        <time>2014-10-19T13:37:31Z</time>
      </trkpt>
      <trkpt lat="45.09778" lon="2.74131">
        <ele>1635.34</ele>
        <time>2014-10-19T13:37:54Z</time>
      </trkpt>
      <trkpt lat="45.09775" lon="2.7413">
        <ele>1631.98</ele>
        <time>2014-10-19T13:38:11Z</time>
      </trkpt>
      <trkpt lat="45.09772" lon="2.74133">
        <ele>1630.05</ele>
        <time>2014-10-19T13:38:30Z</time>
      </trkpt>
      <trkpt lat="45.09763" lon="2.74134">
        <ele>1627.65</ele>
        <time>2014-10-19T13:38:46Z</time>
      </trkpt>
      <trkpt lat="45.09756" lon="2.74141">
        <ele>1625.25</ele>
        <time>2014-10-19T13:39:03Z</time>
      </trkpt>
      <trkpt lat="45.09753" lon="2.74138">
        <ele>1623.32</ele>
        <time>2014-10-19T13:39:09Z</time>
      </trkpt>
      <trkpt lat="45.09751" lon="2.74134">
        <ele>1620.44</ele>
        <time>2014-10-19T13:39:18Z</time>
      </trkpt>
      <trkpt lat="45.09751" lon="2.74126">
        <ele>1617.56</ele>
        <time>2014-10-19T13:39:32Z</time>
      </trkpt>
      <trkpt lat="45.09746" lon="2.74123">
        <ele>1614.19</ele>
        <time>2014-10-19T13:39:43Z</time>
      </trkpt>
      <trkpt lat="45.09743" lon="2.74119">
        <ele>1610.83</ele>
        <time>2014-10-19T13:39:59Z</time>
      </trkpt>
      <trkpt lat="45.09739" lon="2.74119">
        <ele>1609.86</ele>
        <time>2014-10-19T13:40:18Z</time>
      </trkpt>
      <trkpt lat="45.09731" lon="2.74116">
        <ele>1609.86</ele>
        <time>2014-10-19T13:40:34Z</time>
      </trkpt>
      <trkpt lat="45.09728" lon="2.7412">
        <ele>1606.5</ele>
        <time>2014-10-19T13:40:48Z</time>
      </trkpt>
      <trkpt lat="45.09727" lon="2.74132">
        <ele>1604.1</ele>
        <time>2014-10-19T13:41:05Z</time>
      </trkpt>
      <trkpt lat="45.09727" lon="2.74137">
        <ele>1602.17</ele>
        <time>2014-10-19T13:41:24Z</time>
      </trkpt>
      <trkpt lat="45.09726" lon="2.74142">
        <ele>1599.29</ele>
        <time>2014-10-19T13:41:40Z</time>
      </trkpt>
      <trkpt lat="45.09726" lon="2.74144">
        <ele>1598.33</ele>
        <time>2014-10-19T13:41:54Z</time>
      </trkpt>
      <trkpt lat="45.09722" lon="2.74144">
        <ele>1595.93</ele>
        <time>2014-10-19T13:42:08Z</time>
      </trkpt>
      <trkpt lat="45.0972" lon="2.74145">
        <ele>1594.48</ele>
        <time>2014-10-19T13:42:26Z</time>
      </trkpt>
      <trkpt lat="45.09719" lon="2.74159">
        <ele>1591.12</ele>
        <time>2014-10-19T13:42:44Z</time>
      </trkpt>
      <trkpt lat="45.09721" lon="2.74164">
        <ele>1591.6</ele>
        <time>2014-10-19T13:42:50Z</time>
      </trkpt>
      <trkpt lat="45.09722" lon="2.74167">
        <ele>1590.16</ele>
        <time>2014-10-19T13:42:54Z</time>
      </trkpt>
      <trkpt lat="45.09724" lon="2.74174">
        <ele>1588.72</ele>
        <time>2014-10-19T13:43:09Z</time>
      </trkpt>
      <trkpt lat="45.09722" lon="2.74177">
        <ele>1585.83</ele>
        <time>2014-10-19T13:43:34Z</time>
      </trkpt>
      <trkpt lat="45.09722" lon="2.74179">
        <ele>1583.91</ele>
        <time>2014-10-19T13:43:53Z</time>
      </trkpt>
      <trkpt lat="45.0972" lon="2.74186">
        <ele>1582.47</ele>
        <time>2014-10-19T13:44:13Z</time>
      </trkpt>
      <trkpt lat="45.09719" lon="2.74186">
        <ele>1581.51</ele>
        <time>2014-10-19T13:44:25Z</time>
      </trkpt>
      <trkpt lat="45.09714" lon="2.74191">
        <ele>1579.1</ele>
        <time>2014-10-19T13:44:40Z</time>
      </trkpt>
      <trkpt lat="45.09712" lon="2.74199">
        <ele>1575.26</ele>
        <time>2014-10-19T13:44:51Z</time>
      </trkpt>
      <trkpt lat="45.09713" lon="2.742">
        <ele>1575.74</ele>
        <time>2014-10-19T13:44:52Z</time>
      </trkpt>
      <trkpt lat="45.09711" lon="2.74211">
        <ele>1572.37</ele>
        <time>2014-10-19T13:45:08Z</time>
      </trkpt>
      <trkpt lat="45.09711" lon="2.74211">
        <ele>1572.37</ele>
        <time>2014-10-19T13:45:09Z</time>
      </trkpt>
      <trkpt lat="45.0971" lon="2.74214">
        <ele>1570.45</ele>
        <time>2014-10-19T13:45:14Z</time>
      </trkpt>
      <trkpt lat="45.09709" lon="2.74217">
        <ele>1569.49</ele>
        <time>2014-10-19T13:45:18Z</time>
      </trkpt>
      <trkpt lat="45.09707" lon="2.74229">
        <ele>1566.12</ele>
        <time>2014-10-19T13:45:32Z</time>
      </trkpt>
      <trkpt lat="45.09707" lon="2.7424">
        <ele>1563.24</ele>
        <time>2014-10-19T13:45:44Z</time>
      </trkpt>
      <trkpt lat="45.09708" lon="2.74245">
        <ele>1561.32</ele>
        <time>2014-10-19T13:45:50Z</time>
      </trkpt>
      <trkpt lat="45.09711" lon="2.74262">
        <ele>1557.95</ele>
        <time>2014-10-19T13:46:06Z</time>
      </trkpt>
      <trkpt lat="45.09707" lon="2.74276">
        <ele>1555.07</ele>
        <time>2014-10-19T13:46:22Z</time>
      </trkpt>
      <trkpt lat="45.09707" lon="2.74281">
        <ele>1554.59</ele>
        <time>2014-10-19T13:46:26Z</time>
      </trkpt>
      <trkpt lat="45.09706" lon="2.74295">
        <ele>1551.71</ele>
        <time>2014-10-19T13:46:37Z</time>
      </trkpt>
      <trkpt lat="45.09702" lon="2.74309">
        <ele>1547.86</ele>
        <time>2014-10-19T13:46:52Z</time>
      </trkpt>
      <trkpt lat="45.0969" lon="2.74307">
        <ele>1544.98</ele>
        <time>2014-10-19T13:47:08Z</time>
      </trkpt>
      <trkpt lat="45.09688" lon="2.74306">
        <ele>1544.98</ele>
        <time>2014-10-19T13:47:10Z</time>
      </trkpt>
      <trkpt lat="45.0968" lon="2.74299">
        <ele>1541.13</ele>
        <time>2014-10-19T13:47:25Z</time>
      </trkpt>
      <trkpt lat="45.09671" lon="2.74292">
        <ele>1537.77</ele>
        <time>2014-10-19T13:47:39Z</time>
      </trkpt>
      <trkpt lat="45.0967" lon="2.74291">
        <ele>1537.77</ele>
        <time>2014-10-19T13:47:40Z</time>
      </trkpt>
      <trkpt lat="45.09665" lon="2.74285">
        <ele>1535.36</ele>
        <time>2014-10-19T13:47:54Z</time>
      </trkpt>
      <trkpt lat="45.09663" lon="2.74296">
        <ele>1532.48</ele>
        <time>2014-10-19T13:48:07Z</time>
      </trkpt>
      <trkpt lat="45.09659" lon="2.74299">
        <ele>1529.59</ele>
        <time>2014-10-19T13:48:22Z</time>
      </trkpt>
      <trkpt lat="45.09654" lon="2.74303">
        <ele>1526.23</ele>
        <time>2014-10-19T13:48:36Z</time>
      </trkpt>
      <trkpt lat="45.0965" lon="2.74302">
        <ele>1524.79</ele>
        <time>2014-10-19T13:48:42Z</time>
      </trkpt>
      <trkpt lat="45.09648" lon="2.74303">
        <ele>1523.35</ele>
        <time>2014-10-19T13:48:46Z</time>
      </trkpt>
      <trkpt lat="45.09641" lon="2.74308">
        <ele>1519.98</ele>
        <time>2014-10-19T13:49:01Z</time>
      </trkpt>
      <trkpt lat="45.09635" lon="2.74305">
        <ele>1518.54</ele>
        <time>2014-10-19T13:49:21Z</time>
      </trkpt>
      <trkpt lat="45.09633" lon="2.74305">
        <ele>1516.62</ele>
        <time>2014-10-19T13:49:45Z</time>
      </trkpt>
      <trkpt lat="45.09629" lon="2.74302">
        <ele>1514.21</ele>
        <time>2014-10-19T13:50:07Z</time>
      </trkpt>
      <trkpt lat="45.09628" lon="2.74302">
        <ele>1514.21</ele>
        <time>2014-10-19T13:50:08Z</time>
      </trkpt>
      <trkpt lat="45.09624" lon="2.74299">
        <ele>1512.29</ele>
        <time>2014-10-19T13:50:27Z</time>
      </trkpt>
      <trkpt lat="45.09622" lon="2.74296">
        <ele>1511.33</ele>
        <time>2014-10-19T13:50:59Z</time>
      </trkpt>
      <trkpt lat="45.09618" lon="2.74298">
        <ele>1508.45</ele>
        <time>2014-10-19T13:51:10Z</time>
      </trkpt>
      <trkpt lat="45.09615" lon="2.74301">
        <ele>1506.04</ele>
        <time>2014-10-19T13:51:25Z</time>
      </trkpt>
      <trkpt lat="45.09609" lon="2.74305">
        <ele>1502.2</ele>
        <time>2014-10-19T13:51:37Z</time>
      </trkpt>
      <trkpt lat="45.09604" lon="2.74306">
        <ele>1500.27</ele>
        <time>2014-10-19T13:51:51Z</time>
      </trkpt>
      <trkpt lat="45.09598" lon="2.74309">
        <ele>1496.91</ele>
        <time>2014-10-19T13:52:07Z</time>
      </trkpt>
      <trkpt lat="45.09596" lon="2.74306">
        <ele>1496.91</ele>
        <time>2014-10-19T13:52:10Z</time>
      </trkpt>
      <trkpt lat="45.09593" lon="2.743">
        <ele>1495.95</ele>
        <time>2014-10-19T13:52:16Z</time>
      </trkpt>
      <trkpt lat="45.09589" lon="2.74293">
        <ele>1492.1</ele>
        <time>2014-10-19T13:52:31Z</time>
      </trkpt>
      <trkpt lat="45.09584" lon="2.74292">
        <ele>1488.74</ele>
        <time>2014-10-19T13:52:47Z</time>
      </trkpt>
      <trkpt lat="45.0958" lon="2.7431">
        <ele>1486.82</ele>
        <time>2014-10-19T13:53:07Z</time>
      </trkpt>
      <trkpt lat="45.09574" lon="2.74319">
        <ele>1484.89</ele>
        <time>2014-10-19T13:53:26Z</time>
      </trkpt>
      <trkpt lat="45.09569" lon="2.74325">
        <ele>1483.93</ele>
        <time>2014-10-19T13:53:32Z</time>
      </trkpt>
      <trkpt lat="45.09562" lon="2.74332">
        <ele>1480.09</ele>
        <time>2014-10-19T13:53:47Z</time>
      </trkpt>
      <trkpt lat="45.09555" lon="2.74336">
        <ele>1477.2</ele>
        <time>2014-10-19T13:54:00Z</time>
      </trkpt>
      <trkpt lat="45.09553" lon="2.74338">
        <ele>1477.2</ele>
        <time>2014-10-19T13:54:03Z</time>
      </trkpt>
      <trkpt lat="45.09544" lon="2.74346">
        <ele>1473.36</ele>
        <time>2014-10-19T13:54:18Z</time>
      </trkpt>
      <trkpt lat="45.09542" lon="2.74348">
        <ele>1472.4</ele>
        <time>2014-10-19T13:54:22Z</time>
      </trkpt>
      <trkpt lat="45.09531" lon="2.74356">
        <ele>1469.03</ele>
        <time>2014-10-19T13:54:36Z</time>
      </trkpt>
      <trkpt lat="45.09525" lon="2.74357">
        <ele>1466.15</ele>
        <time>2014-10-19T13:54:53Z</time>
      </trkpt>
      <trkpt lat="45.09514" lon="2.74357">
        <ele>1464.23</ele>
        <time>2014-10-19T13:55:08Z</time>
      </trkpt>
      <trkpt lat="45.09513" lon="2.74356">
        <ele>1457.02</ele>
        <time>2014-10-19T13:55:24Z</time>
      </trkpt>
      <trkpt lat="45.09513" lon="2.74356">
        <ele>1464.23</ele>
        <time>2014-10-19T13:55:25Z</time>
      </trkpt>
      <trkpt lat="45.09513" lon="2.74356">
        <ele>1478.65</ele>
        <time>2014-10-19T13:55:27Z</time>
      </trkpt>
      <trkpt lat="45.09512" lon="2.74356">
        <ele>1476.24</ele>
        <time>2014-10-19T13:55:28Z</time>
      </trkpt>
      <trkpt lat="45.09512" lon="2.74356">
        <ele>1469.03</ele>
        <time>2014-10-19T13:55:29Z</time>
      </trkpt>
      <trkpt lat="45.09512" lon="2.74356">
        <ele>1460.38</ele>
        <time>2014-10-19T13:55:30Z</time>
      </trkpt>
      <trkpt lat="45.09512" lon="2.74356">
        <ele>1464.23</ele>
        <time>2014-10-19T13:55:31Z</time>
      </trkpt>
      <trkpt lat="45.09511" lon="2.74356">
        <ele>1457.02</ele>
        <time>2014-10-19T13:55:43Z</time>
      </trkpt>
      <trkpt lat="45.09511" lon="2.74356">
        <ele>1465.19</ele>
        <time>2014-10-19T13:55:44Z</time>
      </trkpt>
      <trkpt lat="45.09511" lon="2.74356">
        <ele>1459.9</ele>
        <time>2014-10-19T13:55:47Z</time>
      </trkpt>
      <trkpt lat="45.09511" lon="2.74356">
        <ele>1464.23</ele>
        <time>2014-10-19T13:55:48Z</time>
      </trkpt>
      <trkpt lat="45.09508" lon="2.74353">
        <ele>1462.3</ele>
        <time>2014-10-19T13:56:08Z</time>
      </trkpt>
      <trkpt lat="45.09506" lon="2.74349">
        <ele>1461.34</ele>
        <time>2014-10-19T13:56:33Z</time>
      </trkpt>
      <trkpt lat="45.09506" lon="2.74349">
        <ele>1461.34</ele>
        <time>2014-10-19T13:56:34Z</time>
      </trkpt>
      <trkpt lat="45.09505" lon="2.74348">
        <ele>1463.74</ele>
        <time>2014-10-19T13:56:37Z</time>
      </trkpt>
      <trkpt lat="45.09505" lon="2.74348">
        <ele>1458.94</ele>
        <time>2014-10-19T13:56:41Z</time>
      </trkpt>
      <trkpt lat="45.09505" lon="2.74348">
        <ele>1467.11</ele>
        <time>2014-10-19T13:56:42Z</time>
      </trkpt>
      <trkpt lat="45.09505" lon="2.74347">
        <ele>1463.26</ele>
        <time>2014-10-19T13:56:44Z</time>
      </trkpt>
      <trkpt lat="45.09504" lon="2.74347">
        <ele>1450.77</ele>
        <time>2014-10-19T13:56:49Z</time>
      </trkpt>
      <trkpt lat="45.09504" lon="2.74347">
        <ele>1463.74</ele>
        <time>2014-10-19T13:56:50Z</time>
      </trkpt>
      <trkpt lat="45.09504" lon="2.74347">
        <ele>1462.78</ele>
        <time>2014-10-19T13:56:51Z</time>
      </trkpt>
      <trkpt lat="45.09503" lon="2.74347">
        <ele>1456.53</ele>
        <time>2014-10-19T13:57:00Z</time>
      </trkpt>
      <trkpt lat="45.09503" lon="2.74347">
        <ele>1462.78</ele>
        <time>2014-10-19T13:57:01Z</time>
      </trkpt>
      <trkpt lat="45.09497" lon="2.74351">
        <ele>1462.3</ele>
        <time>2014-10-19T13:57:23Z</time>
      </trkpt>
      <trkpt lat="45.09495" lon="2.74348">
        <ele>1458.46</ele>
        <time>2014-10-19T13:57:34Z</time>
      </trkpt>
      <trkpt lat="45.09495" lon="2.74339">
        <ele>1455.57</ele>
        <time>2014-10-19T13:57:51Z</time>
      </trkpt>
      <trkpt lat="45.09494" lon="2.74334">
        <ele>1440.19</ele>
        <time>2014-10-19T13:58:05Z</time>
      </trkpt>
      <trkpt lat="45.09493" lon="2.74334">
        <ele>1455.09</ele>
        <time>2014-10-19T13:58:06Z</time>
      </trkpt>
      <trkpt lat="45.09492" lon="2.74337">
        <ele>1460.38</ele>
        <time>2014-10-19T13:58:21Z</time>
      </trkpt>
      <trkpt lat="45.09492" lon="2.74337">
        <ele>1454.61</ele>
        <time>2014-10-19T13:58:22Z</time>
      </trkpt>
      <trkpt lat="45.09492" lon="2.74337">
        <ele>1446.92</ele>
        <time>2014-10-19T13:58:25Z</time>
      </trkpt>
      <trkpt lat="45.09491" lon="2.74336">
        <ele>1454.61</ele>
        <time>2014-10-19T13:58:26Z</time>
      </trkpt>
      <trkpt lat="45.09487" lon="2.7433">
        <ele>1451.25</ele>
        <time>2014-10-19T13:58:45Z</time>
      </trkpt>
      <trkpt lat="45.09481" lon="2.74324">
        <ele>1448.36</ele>
        <time>2014-10-19T13:58:56Z</time>
      </trkpt>
      <trkpt lat="45.09478" lon="2.7432">
        <ele>1445</ele>
        <time>2014-10-19T13:59:07Z</time>
      </trkpt>
      <trkpt lat="45.09474" lon="2.74318">
        <ele>1441.63</ele>
        <time>2014-10-19T13:59:22Z</time>
      </trkpt>
      <trkpt lat="45.09473" lon="2.74318">
        <ele>1441.15</ele>
        <time>2014-10-19T13:59:28Z</time>
      </trkpt>
      <trkpt lat="45.09469" lon="2.74317">
        <ele>1438.75</ele>
        <time>2014-10-19T13:59:35Z</time>
      </trkpt>
      <trkpt lat="45.09466" lon="2.74314">
        <ele>1435.87</ele>
        <time>2014-10-19T13:59:48Z</time>
      </trkpt>
      <trkpt lat="45.09464" lon="2.74313">
        <ele>1438.75</ele>
        <time>2014-10-19T13:59:54Z</time>
      </trkpt>
      <trkpt lat="45.09464" lon="2.74313">
        <ele>1444.52</ele>
        <time>2014-10-19T14:00:03Z</time>
      </trkpt>
      <trkpt lat="45.09464" lon="2.74313">
        <ele>1443.08</ele>
        <time>2014-10-19T14:00:04Z</time>
      </trkpt>
      <trkpt lat="45.09464" lon="2.74312">
        <ele>1437.79</ele>
        <time>2014-10-19T14:00:06Z</time>
      </trkpt>
      <trkpt lat="45.09464" lon="2.74312">
        <ele>1437.31</ele>
        <time>2014-10-19T14:00:07Z</time>
      </trkpt>
      <trkpt lat="45.09456" lon="2.74305">
        <ele>1434.42</ele>
        <time>2014-10-19T14:00:23Z</time>
      </trkpt>
      <trkpt lat="45.09452" lon="2.74304">
        <ele>1432.5</ele>
        <time>2014-10-19T14:00:35Z</time>
      </trkpt>
      <trkpt lat="45.09448" lon="2.74302">
        <ele>1426.25</ele>
        <time>2014-10-19T14:00:48Z</time>
      </trkpt>
      <trkpt lat="45.09449" lon="2.74302">
        <ele>1430.58</ele>
        <time>2014-10-19T14:00:49Z</time>
      </trkpt>
      <trkpt lat="45.09449" lon="2.74301">
        <ele>1439.71</ele>
        <time>2014-10-19T14:01:01Z</time>
      </trkpt>
      <trkpt lat="45.09449" lon="2.74301">
        <ele>1430.1</ele>
        <time>2014-10-19T14:01:02Z</time>
      </trkpt>
      <trkpt lat="45.09449" lon="2.74301">
        <ele>1435.39</ele>
        <time>2014-10-19T14:01:03Z</time>
      </trkpt>
      <trkpt lat="45.09449" lon="2.74301">
        <ele>1430.58</ele>
        <time>2014-10-19T14:01:04Z</time>
      </trkpt>
      <trkpt lat="45.09449" lon="2.74301">
        <ele>1421.45</ele>
        <time>2014-10-19T14:01:07Z</time>
      </trkpt>
      <trkpt lat="45.09449" lon="2.74301">
        <ele>1430.58</ele>
        <time>2014-10-19T14:01:08Z</time>
      </trkpt>
      <trkpt lat="45.09449" lon="2.74301">
        <ele>1434.42</ele>
        <time>2014-10-19T14:01:10Z</time>
      </trkpt>
      <trkpt lat="45.09449" lon="2.74301">
        <ele>1430.1</ele>
        <time>2014-10-19T14:01:11Z</time>
      </trkpt>
      <trkpt lat="45.09449" lon="2.74301">
        <ele>1424.81</ele>
        <time>2014-10-19T14:01:28Z</time>
      </trkpt>
      <trkpt lat="45.0945" lon="2.74301">
        <ele>1430.58</ele>
        <time>2014-10-19T14:01:29Z</time>
      </trkpt>
      <trkpt lat="45.0945" lon="2.74301">
        <ele>1434.42</ele>
        <time>2014-10-19T14:01:31Z</time>
      </trkpt>
      <trkpt lat="45.09449" lon="2.74301">
        <ele>1430.58</ele>
        <time>2014-10-19T14:01:32Z</time>
      </trkpt>
      <trkpt lat="45.09445" lon="2.74293">
        <ele>1427.21</ele>
        <time>2014-10-19T14:01:42Z</time>
      </trkpt>
      <trkpt lat="45.09434" lon="2.74304">
        <ele>1428.66</ele>
        <time>2014-10-19T14:02:03Z</time>
      </trkpt>
      <trkpt lat="45.09426" lon="2.74308">
        <ele>1424.81</ele>
        <time>2014-10-19T14:02:19Z</time>
      </trkpt>
      <trkpt lat="45.09426" lon="2.74308">
        <ele>1420.97</ele>
        <time>2014-10-19T14:02:20Z</time>
      </trkpt>
      <trkpt lat="45.09426" lon="2.74308">
        <ele>1426.73</ele>
        <time>2014-10-19T14:02:21Z</time>
      </trkpt>
      <trkpt lat="45.09426" lon="2.74308">
        <ele>1426.73</ele>
        <time>2014-10-19T14:02:22Z</time>
      </trkpt>
      <trkpt lat="45.09422" lon="2.7432">
        <ele>1431.06</ele>
        <time>2014-10-19T14:02:38Z</time>
      </trkpt>
      <trkpt lat="45.09421" lon="2.74321">
        <ele>1426.73</ele>
        <time>2014-10-19T14:02:39Z</time>
      </trkpt>
      <trkpt lat="45.09413" lon="2.74337">
        <ele>1426.25</ele>
        <time>2014-10-19T14:02:56Z</time>
      </trkpt>
      <trkpt lat="45.09406" lon="2.74347">
        <ele>1426.25</ele>
        <time>2014-10-19T14:03:16Z</time>
      </trkpt>
      <trkpt lat="45.09396" lon="2.74355">
        <ele>1420.97</ele>
        <time>2014-10-19T14:03:35Z</time>
      </trkpt>
      <trkpt lat="45.09389" lon="2.74367">
        <ele>1422.89</ele>
        <time>2014-10-19T14:03:54Z</time>
      </trkpt>
      <trkpt lat="45.09378" lon="2.74381">
        <ele>1420.49</ele>
        <time>2014-10-19T14:04:12Z</time>
      </trkpt>
      <trkpt lat="45.09378" lon="2.74384">
        <ele>1420</ele>
        <time>2014-10-19T14:04:39Z</time>
      </trkpt>
      <trkpt lat="45.0938" lon="2.74383">
        <ele>1419.04</ele>
        <time>2014-10-19T14:05:11Z</time>
      </trkpt>
      <trkpt lat="45.09378" lon="2.74385">
        <ele>1419.52</ele>
        <time>2014-10-19T14:05:43Z</time>
      </trkpt>
      <trkpt lat="45.09376" lon="2.74385">
        <ele>1428.18</ele>
        <time>2014-10-19T14:05:53Z</time>
      </trkpt>
      <trkpt lat="45.09376" lon="2.74385">
        <ele>1420</ele>
        <time>2014-10-19T14:05:54Z</time>
      </trkpt>
      <trkpt lat="45.09375" lon="2.74383">
        <ele>1427.7</ele>
        <time>2014-10-19T14:06:00Z</time>
      </trkpt>
      <trkpt lat="45.09375" lon="2.74383">
        <ele>1419.52</ele>
        <time>2014-10-19T14:06:01Z</time>
      </trkpt>
      <trkpt lat="45.09374" lon="2.74383">
        <ele>1416.16</ele>
        <time>2014-10-19T14:06:02Z</time>
      </trkpt>
      <trkpt lat="45.09374" lon="2.74383">
        <ele>1420.49</ele>
        <time>2014-10-19T14:06:04Z</time>
      </trkpt>
      <trkpt lat="45.09374" lon="2.74383">
        <ele>1419.04</ele>
        <time>2014-10-19T14:06:05Z</time>
      </trkpt>
      <trkpt lat="45.09373" lon="2.74384">
        <ele>1420.49</ele>
        <time>2014-10-19T14:06:11Z</time>
      </trkpt>
      <trkpt lat="45.09374" lon="2.74385">
        <ele>1419.52</ele>
        <time>2014-10-19T14:06:13Z</time>
      </trkpt>
      <trkpt lat="45.0937" lon="2.74394">
        <ele>1418.08</ele>
        <time>2014-10-19T14:06:36Z</time>
      </trkpt>
      <trkpt lat="45.09365" lon="2.74399">
        <ele>1414.72</ele>
        <time>2014-10-19T14:06:48Z</time>
      </trkpt>
      <trkpt lat="45.09356" lon="2.74403">
        <ele>1411.83</ele>
        <time>2014-10-19T14:06:59Z</time>
      </trkpt>
      <trkpt lat="45.09344" lon="2.74405">
        <ele>1408.47</ele>
        <time>2014-10-19T14:07:15Z</time>
      </trkpt>
      <trkpt lat="45.09336" lon="2.74407">
        <ele>1405.1</ele>
        <time>2014-10-19T14:07:30Z</time>
      </trkpt>
      <trkpt lat="45.09325" lon="2.74409">
        <ele>1402.22</ele>
        <time>2014-10-19T14:07:45Z</time>
      </trkpt>
      <trkpt lat="45.09315" lon="2.74416">
        <ele>1398.86</ele>
        <time>2014-10-19T14:07:58Z</time>
      </trkpt>
      <trkpt lat="45.09306" lon="2.74419">
        <ele>1395.97</ele>
        <time>2014-10-19T14:08:10Z</time>
      </trkpt>
      <trkpt lat="45.09298" lon="2.7442">
        <ele>1392.61</ele>
        <time>2014-10-19T14:08:23Z</time>
      </trkpt>
      <trkpt lat="45.09287" lon="2.74423">
        <ele>1389.24</ele>
        <time>2014-10-19T14:08:35Z</time>
      </trkpt>
      <trkpt lat="45.09276" lon="2.74427">
        <ele>1386.36</ele>
        <time>2014-10-19T14:08:50Z</time>
      </trkpt>
      <trkpt lat="45.09271" lon="2.74422">
        <ele>1384.92</ele>
        <time>2014-10-19T14:08:57Z</time>
      </trkpt>
      <trkpt lat="45.09266" lon="2.74415">
        <ele>1383.96</ele>
        <time>2014-10-19T14:09:01Z</time>
      </trkpt>
      <trkpt lat="45.09261" lon="2.74395">
        <ele>1381.55</ele>
        <time>2014-10-19T14:09:18Z</time>
      </trkpt>
      <trkpt lat="45.09269" lon="2.74372">
        <ele>1378.67</ele>
        <time>2014-10-19T14:09:35Z</time>
      </trkpt>
      <trkpt lat="45.09278" lon="2.74357">
        <ele>1375.3</ele>
        <time>2014-10-19T14:09:51Z</time>
      </trkpt>
      <trkpt lat="45.09281" lon="2.74349">
        <ele>1374.34</ele>
        <time>2014-10-19T14:09:57Z</time>
      </trkpt>
      <trkpt lat="45.0929" lon="2.7433">
        <ele>1370.5</ele>
        <time>2014-10-19T14:10:14Z</time>
      </trkpt>
      <trkpt lat="45.09298" lon="2.74306">
        <ele>1368.09</ele>
        <time>2014-10-19T14:10:33Z</time>
      </trkpt>
      <trkpt lat="45.09298" lon="2.74284">
        <ele>1365.21</ele>
        <time>2014-10-19T14:10:47Z</time>
      </trkpt>
      <trkpt lat="45.09293" lon="2.74256">
        <ele>1361.84</ele>
        <time>2014-10-19T14:11:02Z</time>
      </trkpt>
      <trkpt lat="45.09302" lon="2.74241">
        <ele>1359.44</ele>
        <time>2014-10-19T14:11:19Z</time>
      </trkpt>
      <trkpt lat="45.09303" lon="2.74229">
        <ele>1358.48</ele>
        <time>2014-10-19T14:11:27Z</time>
      </trkpt>
      <trkpt lat="45.09306" lon="2.74202">
        <ele>1355.12</ele>
        <time>2014-10-19T14:11:46Z</time>
      </trkpt>
      <trkpt lat="45.09304" lon="2.74181">
        <ele>1353.19</ele>
        <time>2014-10-19T14:12:02Z</time>
      </trkpt>
      <trkpt lat="45.09297" lon="2.7417">
        <ele>1352.71</ele>
        <time>2014-10-19T14:12:22Z</time>
      </trkpt>
      <trkpt lat="45.09295" lon="2.74174">
        <ele>1352.23</ele>
        <time>2014-10-19T14:12:39Z</time>
      </trkpt>
      <trkpt lat="45.0928" lon="2.74177">
        <ele>1349.35</ele>
        <time>2014-10-19T14:12:53Z</time>
      </trkpt>
      <trkpt lat="45.09275" lon="2.74177">
        <ele>1348.87</ele>
        <time>2014-10-19T14:12:58Z</time>
      </trkpt>
      <trkpt lat="45.09265" lon="2.7418">
        <ele>1345.5</ele>
        <time>2014-10-19T14:13:14Z</time>
      </trkpt>
      <trkpt lat="45.09258" lon="2.74179">
        <ele>1343.58</ele>
        <time>2014-10-19T14:13:20Z</time>
      </trkpt>
      <trkpt lat="45.09249" lon="2.74183">
        <ele>1342.62</ele>
        <time>2014-10-19T14:13:29Z</time>
      </trkpt>
      <trkpt lat="45.09234" lon="2.74186">
        <ele>1339.73</ele>
        <time>2014-10-19T14:13:42Z</time>
      </trkpt>
      <trkpt lat="45.09218" lon="2.74185">
        <ele>1335.89</ele>
        <time>2014-10-19T14:13:56Z</time>
      </trkpt>
      <trkpt lat="45.09201" lon="2.74168">
        <ele>1333.01</ele>
        <time>2014-10-19T14:14:10Z</time>
      </trkpt>
      <trkpt lat="45.09185" lon="2.74163">
        <ele>1330.12</ele>
        <time>2014-10-19T14:14:28Z</time>
      </trkpt>
      <trkpt lat="45.09175" lon="2.74165">
        <ele>1327.24</ele>
        <time>2014-10-19T14:14:41Z</time>
      </trkpt>
      <trkpt lat="45.09172" lon="2.74167">
        <ele>1326.76</ele>
        <time>2014-10-19T14:14:44Z</time>
      </trkpt>
      <trkpt lat="45.09162" lon="2.74165">
        <ele>1325.31</ele>
        <time>2014-10-19T14:14:51Z</time>
      </trkpt>
      <trkpt lat="45.09152" lon="2.74164">
        <ele>1323.39</ele>
        <time>2014-10-19T14:15:08Z</time>
      </trkpt>
      <trkpt lat="45.09146" lon="2.74173">
        <ele>1322.91</ele>
        <time>2014-10-19T14:15:15Z</time>
      </trkpt>
      <trkpt lat="45.09142" lon="2.74177">
        <ele>1321.95</ele>
        <time>2014-10-19T14:15:19Z</time>
      </trkpt>
      <trkpt lat="45.09128" lon="2.74191">
        <ele>1319.07</ele>
        <time>2014-10-19T14:15:33Z</time>
      </trkpt>
      <trkpt lat="45.09115" lon="2.74209">
        <ele>1315.7</ele>
        <time>2014-10-19T14:15:50Z</time>
      </trkpt>
      <trkpt lat="45.09102" lon="2.74233">
        <ele>1313.3</ele>
        <time>2014-10-19T14:16:07Z</time>
      </trkpt>
      <trkpt lat="45.09094" lon="2.74241">
        <ele>1311.86</ele>
        <time>2014-10-19T14:16:14Z</time>
      </trkpt>
      <trkpt lat="45.09081" lon="2.74253">
        <ele>1308.97</ele>
        <time>2014-10-19T14:16:31Z</time>
      </trkpt>
      <trkpt lat="45.09077" lon="2.74255">
        <ele>1307.53</ele>
        <time>2014-10-19T14:16:35Z</time>
      </trkpt>
      <trkpt lat="45.09073" lon="2.74256">
        <ele>1307.05</ele>
        <time>2014-10-19T14:16:39Z</time>
      </trkpt>
      <trkpt lat="45.09056" lon="2.74249">
        <ele>1303.69</ele>
        <time>2014-10-19T14:16:56Z</time>
      </trkpt>
      <trkpt lat="45.09046" lon="2.74241">
        <ele>1300.32</ele>
        <time>2014-10-19T14:17:08Z</time>
      </trkpt>
      <trkpt lat="45.09044" lon="2.74238">
        <ele>1299.84</ele>
        <time>2014-10-19T14:17:12Z</time>
      </trkpt>
      <trkpt lat="45.09037" lon="2.74225">
        <ele>1296.48</ele>
        <time>2014-10-19T14:17:26Z</time>
      </trkpt>
      <trkpt lat="45.09028" lon="2.74216">
        <ele>1293.11</ele>
        <time>2014-10-19T14:17:42Z</time>
      </trkpt>
      <trkpt lat="45.09023" lon="2.74212">
        <ele>1291.67</ele>
        <time>2014-10-19T14:17:47Z</time>
      </trkpt>
      <trkpt lat="45.09017" lon="2.74204">
        <ele>1289.75</ele>
        <time>2014-10-19T14:17:57Z</time>
      </trkpt>
      <trkpt lat="45.09012" lon="2.74193">
        <ele>1286.86</ele>
        <time>2014-10-19T14:18:09Z</time>
      </trkpt>
      <trkpt lat="45.09011" lon="2.74177">
        <ele>1283.5</ele>
        <time>2014-10-19T14:18:25Z</time>
      </trkpt>
      <trkpt lat="45.0901" lon="2.74172">
        <ele>1283.02</ele>
        <time>2014-10-19T14:18:29Z</time>
      </trkpt>
      <trkpt lat="45.09007" lon="2.74153">
        <ele>1280.61</ele>
        <time>2014-10-19T14:18:47Z</time>
      </trkpt>
      <trkpt lat="45.09008" lon="2.7415">
        <ele>1280.61</ele>
        <time>2014-10-19T14:19:21Z</time>
      </trkpt>
      <trkpt lat="45.09007" lon="2.7415">
        <ele>1280.61</ele>
        <time>2014-10-19T14:19:51Z</time>
      </trkpt>
      <trkpt lat="45.09006" lon="2.74144">
        <ele>1279.65</ele>
        <time>2014-10-19T14:20:20Z</time>
      </trkpt>
      <trkpt lat="45.09005" lon="2.74137">
        <ele>1278.69</ele>
        <time>2014-10-19T14:20:41Z</time>
      </trkpt>
      <trkpt lat="45.09003" lon="2.74122">
        <ele>1276.29</ele>
        <time>2014-10-19T14:20:58Z</time>
      </trkpt>
      <trkpt lat="45.09002" lon="2.74118">
        <ele>1274.85</ele>
        <time>2014-10-19T14:21:01Z</time>
      </trkpt>
      <trkpt lat="45.09001" lon="2.74108">
        <ele>1273.88</ele>
        <time>2014-10-19T14:21:08Z</time>
      </trkpt>
      <trkpt lat="45.08995" lon="2.74082">
        <ele>1270.52</ele>
        <time>2014-10-19T14:21:25Z</time>
      </trkpt>
      <trkpt lat="45.08988" lon="2.74084">
        <ele>1269.56</ele>
        <time>2014-10-19T14:21:32Z</time>
      </trkpt>
      <trkpt lat="45.08984" lon="2.74088">
        <ele>1268.12</ele>
        <time>2014-10-19T14:21:36Z</time>
      </trkpt>
      <trkpt lat="45.08978" lon="2.74111">
        <ele>1265.23</ele>
        <time>2014-10-19T14:21:54Z</time>
      </trkpt>
      <trkpt lat="45.08977" lon="2.74119">
        <ele>1264.27</ele>
        <time>2014-10-19T14:21:58Z</time>
      </trkpt>
      <trkpt lat="45.08973" lon="2.74137">
        <ele>1261.39</ele>
        <time>2014-10-19T14:22:10Z</time>
      </trkpt>
      <trkpt lat="45.08971" lon="2.74139">
        <ele>1261.39</ele>
        <time>2014-10-19T14:22:12Z</time>
      </trkpt>
      <trkpt lat="45.08966" lon="2.74152">
        <ele>1258.02</ele>
        <time>2014-10-19T14:22:25Z</time>
      </trkpt>
      <trkpt lat="45.08964" lon="2.74154">
        <ele>1257.06</ele>
        <time>2014-10-19T14:22:29Z</time>
      </trkpt>
      <trkpt lat="45.08964" lon="2.74157">
        <ele>1256.58</ele>
        <time>2014-10-19T14:22:31Z</time>
      </trkpt>
      <trkpt lat="45.08962" lon="2.74167">
        <ele>1255.14</ele>
        <time>2014-10-19T14:22:39Z</time>
      </trkpt>
      <trkpt lat="45.08958" lon="2.74173">
        <ele>1253.7</ele>
        <time>2014-10-19T14:22:48Z</time>
      </trkpt>
      <trkpt lat="45.08956" lon="2.74171">
        <ele>1253.22</ele>
        <time>2014-10-19T14:22:50Z</time>
      </trkpt>
      <trkpt lat="45.08955" lon="2.74165">
        <ele>1253.22</ele>
        <time>2014-10-19T14:22:54Z</time>
      </trkpt>
      <trkpt lat="45.08958" lon="2.74145">
        <ele>1253.22</ele>
        <time>2014-10-19T14:23:06Z</time>
      </trkpt>
      <trkpt lat="45.08958" lon="2.74134">
        <ele>1253.22</ele>
        <time>2014-10-19T14:23:11Z</time>
      </trkpt>
      <trkpt lat="45.08959" lon="2.74114">
        <ele>1253.7</ele>
        <time>2014-10-19T14:23:23Z</time>
      </trkpt>
      <trkpt lat="45.08959" lon="2.74107">
        <ele>1253.7</ele>
        <time>2014-10-19T14:23:27Z</time>
      </trkpt>
      <trkpt lat="45.08961" lon="2.741">
        <ele>1253.7</ele>
        <time>2014-10-19T14:23:31Z</time>
      </trkpt>
      <trkpt lat="45.08963" lon="2.74096">
        <ele>1253.7</ele>
        <time>2014-10-19T14:23:33Z</time>
      </trkpt>
      <trkpt lat="45.08972" lon="2.74066">
        <ele>1254.18</ele>
        <time>2014-10-19T14:23:54Z</time>
      </trkpt>
      <trkpt lat="45.08979" lon="2.74046">
        <ele>1253.7</ele>
        <time>2014-10-19T14:24:08Z</time>
      </trkpt>
      <trkpt lat="45.08979" lon="2.7404">
        <ele>1254.18</ele>
        <time>2014-10-19T14:24:11Z</time>
      </trkpt>
      <trkpt lat="45.08993" lon="2.74014">
        <ele>1252.74</ele>
        <time>2014-10-19T14:24:30Z</time>
      </trkpt>
      <trkpt lat="45.08995" lon="2.74011">
        <ele>1252.74</ele>
        <time>2014-10-19T14:24:32Z</time>
      </trkpt>
      <trkpt lat="45.08996" lon="2.74007">
        <ele>1252.74</ele>
        <time>2014-10-19T14:24:34Z</time>
      </trkpt>
      <trkpt lat="45.08999" lon="2.74">
        <ele>1252.74</ele>
        <time>2014-10-19T14:24:38Z</time>
      </trkpt>
      <trkpt lat="45.09001" lon="2.73985">
        <ele>1252.25</ele>
        <time>2014-10-19T14:24:46Z</time>
      </trkpt>
      <trkpt lat="45.09008" lon="2.73962">
        <ele>1251.77</ele>
        <time>2014-10-19T14:25:03Z</time>
      </trkpt>
      <trkpt lat="45.09002" lon="2.73966">
        <ele>1249.37</ele>
        <time>2014-10-19T14:25:13Z</time>
      </trkpt>
      <trkpt lat="45.08993" lon="2.73977">
        <ele>1246.49</ele>
        <time>2014-10-19T14:25:28Z</time>
      </trkpt>
      <trkpt lat="45.08975" lon="2.73994">
        <ele>1243.6</ele>
        <time>2014-10-19T14:25:45Z</time>
      </trkpt>
      <trkpt lat="45.08974" lon="2.73995">
        <ele>1243.12</ele>
        <time>2014-10-19T14:25:46Z</time>
      </trkpt>
      <trkpt lat="45.08971" lon="2.74">
        <ele>1242.64</ele>
        <time>2014-10-19T14:25:50Z</time>
      </trkpt>
      <trkpt lat="45.08969" lon="2.74004">
        <ele>1242.64</ele>
        <time>2014-10-19T14:25:53Z</time>
      </trkpt>
      <trkpt lat="45.08958" lon="2.74018">
        <ele>1240.24</ele>
        <time>2014-10-19T14:26:06Z</time>
      </trkpt>
      <trkpt lat="45.08945" lon="2.74042">
        <ele>1236.87</ele>
        <time>2014-10-19T14:26:24Z</time>
      </trkpt>
      <trkpt lat="45.08937" lon="2.74055">
        <ele>1235.91</ele>
        <time>2014-10-19T14:26:42Z</time>
      </trkpt>
      <trkpt lat="45.08936" lon="2.74055">
        <ele>1234.95</ele>
        <time>2014-10-19T14:26:47Z</time>
      </trkpt>
      <trkpt lat="45.08935" lon="2.74059">
        <ele>1234.95</ele>
        <time>2014-10-19T14:26:50Z</time>
      </trkpt>
      <trkpt lat="45.08931" lon="2.74065">
        <ele>1234.47</ele>
        <time>2014-10-19T14:26:55Z</time>
      </trkpt>
      <trkpt lat="45.08925" lon="2.7407">
        <ele>1233.51</ele>
        <time>2014-10-19T14:27:02Z</time>
      </trkpt>
      <trkpt lat="45.08923" lon="2.74073">
        <ele>1233.03</ele>
        <time>2014-10-19T14:27:04Z</time>
      </trkpt>
      <trkpt lat="45.08915" lon="2.74092">
        <ele>1231.59</ele>
        <time>2014-10-19T14:27:17Z</time>
      </trkpt>
      <trkpt lat="45.08913" lon="2.74095">
        <ele>1231.11</ele>
        <time>2014-10-19T14:27:20Z</time>
      </trkpt>
      <trkpt lat="45.08912" lon="2.74102">
        <ele>1230.62</ele>
        <time>2014-10-19T14:27:24Z</time>
      </trkpt>
      <trkpt lat="45.08909" lon="2.74113">
        <ele>1229.66</ele>
        <time>2014-10-19T14:27:30Z</time>
      </trkpt>
      <trkpt lat="45.08906" lon="2.74126">
        <ele>1228.7</ele>
        <time>2014-10-19T14:27:39Z</time>
      </trkpt>
      <trkpt lat="45.08903" lon="2.7413">
        <ele>1227.74</ele>
        <time>2014-10-19T14:27:43Z</time>
      </trkpt>
      <trkpt lat="45.08903" lon="2.74134">
        <ele>1227.26</ele>
        <time>2014-10-19T14:27:46Z</time>
      </trkpt>
      <trkpt lat="45.089" lon="2.74141">
        <ele>1226.3</ele>
        <time>2014-10-19T14:27:52Z</time>
      </trkpt>
      <trkpt lat="45.08893" lon="2.74168">
        <ele>1222.45</ele>
        <time>2014-10-19T14:28:09Z</time>
      </trkpt>
      <trkpt lat="45.08893" lon="2.74171">
        <ele>1221.97</ele>
        <time>2014-10-19T14:28:12Z</time>
      </trkpt>
      <trkpt lat="45.08892" lon="2.74174">
        <ele>1221.97</ele>
        <time>2014-10-19T14:28:14Z</time>
      </trkpt>
      <trkpt lat="45.08892" lon="2.74178">
        <ele>1221.49</ele>
        <time>2014-10-19T14:28:17Z</time>
      </trkpt>
      <trkpt lat="45.0889" lon="2.74181">
        <ele>1220.53</ele>
        <time>2014-10-19T14:28:21Z</time>
      </trkpt>
      <trkpt lat="45.08881" lon="2.74194">
        <ele>1216.69</ele>
        <time>2014-10-19T14:28:44Z</time>
      </trkpt>
      <trkpt lat="45.08868" lon="2.7421">
        <ele>1213.8</ele>
        <time>2014-10-19T14:29:03Z</time>
      </trkpt>
      <trkpt lat="45.0886" lon="2.74229">
        <ele>1211.4</ele>
        <time>2014-10-19T14:29:24Z</time>
      </trkpt>
      <trkpt lat="45.08852" lon="2.7424">
        <ele>1209.96</ele>
        <time>2014-10-19T14:29:36Z</time>
      </trkpt>
      <trkpt lat="45.08841" lon="2.74249">
        <ele>1208.03</ele>
        <time>2014-10-19T14:29:47Z</time>
      </trkpt>
      <trkpt lat="45.08837" lon="2.74247">
        <ele>1207.07</ele>
        <time>2014-10-19T14:29:52Z</time>
      </trkpt>
      <trkpt lat="45.0883" lon="2.74235">
        <ele>1204.67</ele>
        <time>2014-10-19T14:30:03Z</time>
      </trkpt>
      <trkpt lat="45.08831" lon="2.74195">
        <ele>1205.63</ele>
        <time>2014-10-19T14:30:26Z</time>
      </trkpt>
      <trkpt lat="45.08842" lon="2.74161">
        <ele>1206.11</ele>
        <time>2014-10-19T14:30:44Z</time>
      </trkpt>
      <trkpt lat="45.08843" lon="2.74156">
        <ele>1206.59</ele>
        <time>2014-10-19T14:30:47Z</time>
      </trkpt>
      <trkpt lat="45.08839" lon="2.74133">
        <ele>1207.07</ele>
        <time>2014-10-19T14:31:05Z</time>
      </trkpt>
      <trkpt lat="45.08839" lon="2.74125">
        <ele>1207.07</ele>
        <time>2014-10-19T14:31:11Z</time>
      </trkpt>
      <trkpt lat="45.08835" lon="2.74086">
        <ele>1206.11</ele>
        <time>2014-10-19T14:31:34Z</time>
      </trkpt>
      <trkpt lat="45.08838" lon="2.74051">
        <ele>1204.67</ele>
        <time>2014-10-19T14:31:55Z</time>
      </trkpt>
      <trkpt lat="45.08838" lon="2.74034">
        <ele>1203.71</ele>
        <time>2014-10-19T14:32:05Z</time>
      </trkpt>
      <trkpt lat="45.08839" lon="2.73993">
        <ele>1202.75</ele>
        <time>2014-10-19T14:32:30Z</time>
      </trkpt>
      <trkpt lat="45.08842" lon="2.73956">
        <ele>1201.79</ele>
        <time>2014-10-19T14:32:52Z</time>
      </trkpt>
      <trkpt lat="45.08836" lon="2.73938">
        <ele>1200.34</ele>
        <time>2014-10-19T14:33:05Z</time>
      </trkpt>
      <trkpt lat="45.08829" lon="2.73904">
        <ele>1200.34</ele>
        <time>2014-10-19T14:33:27Z</time>
      </trkpt>
      <trkpt lat="45.08825" lon="2.73894">
        <ele>1200.82</ele>
        <time>2014-10-19T14:33:47Z</time>
      </trkpt>
      <trkpt lat="45.08825" lon="2.73895">
        <ele>1200.82</ele>
        <time>2014-10-19T14:34:11Z</time>
      </trkpt>
      <trkpt lat="45.08827" lon="2.73894">
        <ele>1199.86</ele>
        <time>2014-10-19T14:34:36Z</time>
      </trkpt>
    </trkseg>
  </trk>
</gpx>